<?xml version="1.0" encoding="UTF-8" standalone="no" ?>
<gpx xmlns="http://www.topografix.com/GPX/1/1" xmlns:xsi="http://www.w3.org/2001/XMLSchema-instance" xsi:schemaLocation="http://www.topografix.com/GPX/1/1 http://www.topografix.com/GPX/1/1/gpx.xsd" version="1.1" creator="VisuGPX - https://www.visugpx.com">
  <metadata>
    <name>Randonnée sur la crete de la Molière (Vercors) - 3600 - UtagawaVTT.com</name>
  </metadata>
  <trk>
    <name><![CDATA[Randonnée sur la crete de la Molière (Vercors) - 3600 - UtagawaVTT.com]]></name>
    <trkseg>
      <trkpt lat="45.17616" lon="5.54226">
        <ele>1054.9</ele>
        <time>2009-08-24T07:03:55Z</time>
      </trkpt>
      <trkpt lat="45.17616" lon="5.54222">
        <ele>1054.6</ele>
        <time>2009-08-24T07:03:58Z</time>
      </trkpt>
      <trkpt lat="45.1773" lon="5.54254">
        <ele>1050</ele>
        <time>2009-08-24T07:04:45Z</time>
      </trkpt>
      <trkpt lat="45.17767" lon="5.54183">
        <ele>1048.6</ele>
        <time>2009-08-24T07:05:01Z</time>
      </trkpt>
      <trkpt lat="45.17797" lon="5.54072">
        <ele>1049.5</ele>
        <time>2009-08-24T07:05:22Z</time>
      </trkpt>
      <trkpt lat="45.17831" lon="5.53997">
        <ele>1047.5</ele>
        <time>2009-08-24T07:05:36Z</time>
      </trkpt>
      <trkpt lat="45.17853" lon="5.53964">
        <ele>1046.1</ele>
        <time>2009-08-24T07:05:43Z</time>
      </trkpt>
      <trkpt lat="45.17886" lon="5.53932">
        <ele>1046.4</ele>
        <time>2009-08-24T07:05:52Z</time>
      </trkpt>
      <trkpt lat="45.17921" lon="5.53923">
        <ele>1046.1</ele>
        <time>2009-08-24T07:06:01Z</time>
      </trkpt>
      <trkpt lat="45.17954" lon="5.53935">
        <ele>1047.9</ele>
        <time>2009-08-24T07:06:10Z</time>
      </trkpt>
      <trkpt lat="45.18028" lon="5.53992">
        <ele>1053</ele>
        <time>2009-08-24T07:06:40Z</time>
      </trkpt>
      <trkpt lat="45.18044" lon="5.53993">
        <ele>1053.6</ele>
        <time>2009-08-24T07:06:47Z</time>
      </trkpt>
      <trkpt lat="45.18064" lon="5.53957">
        <ele>1052.5</ele>
        <time>2009-08-24T07:06:59Z</time>
      </trkpt>
      <trkpt lat="45.18107" lon="5.53833">
        <ele>1054.5</ele>
        <time>2009-08-24T07:07:26Z</time>
      </trkpt>
      <trkpt lat="45.18129" lon="5.53779">
        <ele>1054.8</ele>
        <time>2009-08-24T07:07:37Z</time>
      </trkpt>
      <trkpt lat="45.18141" lon="5.53767">
        <ele>1053.8</ele>
        <time>2009-08-24T07:07:41Z</time>
      </trkpt>
      <trkpt lat="45.1817" lon="5.5376">
        <ele>1054</ele>
        <time>2009-08-24T07:07:49Z</time>
      </trkpt>
      <trkpt lat="45.18255" lon="5.53761">
        <ele>1055</ele>
        <time>2009-08-24T07:08:14Z</time>
      </trkpt>
      <trkpt lat="45.18365" lon="5.53743">
        <ele>1057.5</ele>
        <time>2009-08-24T07:08:53Z</time>
      </trkpt>
      <trkpt lat="45.18418" lon="5.53728">
        <ele>1058.5</ele>
        <time>2009-08-24T07:09:12Z</time>
      </trkpt>
      <trkpt lat="45.18455" lon="5.53755">
        <ele>1061.5</ele>
        <time>2009-08-24T07:09:29Z</time>
      </trkpt>
      <trkpt lat="45.1847" lon="5.53775">
        <ele>1062.3</ele>
        <time>2009-08-24T07:09:37Z</time>
      </trkpt>
      <trkpt lat="45.18517" lon="5.53808">
        <ele>1066.6</ele>
        <time>2009-08-24T07:09:59Z</time>
      </trkpt>
      <trkpt lat="45.18556" lon="5.53823">
        <ele>1072</ele>
        <time>2009-08-24T07:10:19Z</time>
      </trkpt>
      <trkpt lat="45.18604" lon="5.53823">
        <ele>1076</ele>
        <time>2009-08-24T07:10:42Z</time>
      </trkpt>
      <trkpt lat="45.18632" lon="5.53836">
        <ele>1078</ele>
        <time>2009-08-24T07:10:59Z</time>
      </trkpt>
      <trkpt lat="45.18654" lon="5.53819">
        <ele>1077</ele>
        <time>2009-08-24T07:11:11Z</time>
      </trkpt>
      <trkpt lat="45.18674" lon="5.53821">
        <ele>1076.6</ele>
        <time>2009-08-24T07:11:20Z</time>
      </trkpt>
      <trkpt lat="45.187" lon="5.53845">
        <ele>1081</ele>
        <time>2009-08-24T07:11:34Z</time>
      </trkpt>
      <trkpt lat="45.18774" lon="5.53878">
        <ele>1088.6</ele>
        <time>2009-08-24T07:12:12Z</time>
      </trkpt>
      <trkpt lat="45.188" lon="5.53882">
        <ele>1090.9</ele>
        <time>2009-08-24T07:12:25Z</time>
      </trkpt>
      <trkpt lat="45.18838" lon="5.5388">
        <ele>1094</ele>
        <time>2009-08-24T07:12:52Z</time>
      </trkpt>
      <trkpt lat="45.18864" lon="5.5387">
        <ele>1094.8</ele>
        <time>2009-08-24T07:13:11Z</time>
      </trkpt>
      <trkpt lat="45.18894" lon="5.53882">
        <ele>1096.8</ele>
        <time>2009-08-24T07:13:29Z</time>
      </trkpt>
      <trkpt lat="45.18918" lon="5.53884">
        <ele>1099.4</ele>
        <time>2009-08-24T07:13:46Z</time>
      </trkpt>
      <trkpt lat="45.18939" lon="5.53874">
        <ele>1104.6</ele>
        <time>2009-08-24T07:14:02Z</time>
      </trkpt>
      <trkpt lat="45.18957" lon="5.53851">
        <ele>1111.1</ele>
        <time>2009-08-24T07:14:21Z</time>
      </trkpt>
      <trkpt lat="45.18955" lon="5.53811">
        <ele>1115.5</ele>
        <time>2009-08-24T07:14:44Z</time>
      </trkpt>
      <trkpt lat="45.18957" lon="5.53784">
        <ele>1118.5</ele>
        <time>2009-08-24T07:14:58Z</time>
      </trkpt>
      <trkpt lat="45.18955" lon="5.53756">
        <ele>1122.4</ele>
        <time>2009-08-24T07:15:13Z</time>
      </trkpt>
      <trkpt lat="45.18942" lon="5.53719">
        <ele>1122.6</ele>
        <time>2009-08-24T07:15:29Z</time>
      </trkpt>
      <trkpt lat="45.18941" lon="5.53704">
        <ele>1123</ele>
        <time>2009-08-24T07:15:34Z</time>
      </trkpt>
      <trkpt lat="45.18929" lon="5.53667">
        <ele>1125.5</ele>
        <time>2009-08-24T07:15:45Z</time>
      </trkpt>
      <trkpt lat="45.18841" lon="5.53611">
        <ele>1125.4</ele>
        <time>2009-08-24T07:16:10Z</time>
      </trkpt>
      <trkpt lat="45.18821" lon="5.53586">
        <ele>1122</ele>
        <time>2009-08-24T07:16:16Z</time>
      </trkpt>
      <trkpt lat="45.18821" lon="5.53577">
        <ele>1122.4</ele>
        <time>2009-08-24T07:16:18Z</time>
      </trkpt>
      <trkpt lat="45.1883" lon="5.53564">
        <ele>1123.4</ele>
        <time>2009-08-24T07:16:23Z</time>
      </trkpt>
      <trkpt lat="45.18836" lon="5.5352">
        <ele>1125.4</ele>
        <time>2009-08-24T07:16:37Z</time>
      </trkpt>
      <trkpt lat="45.18833" lon="5.53509">
        <ele>1124.8</ele>
        <time>2009-08-24T07:16:48Z</time>
      </trkpt>
      <trkpt lat="45.18843" lon="5.53496">
        <ele>1124.6</ele>
        <time>2009-08-24T07:17:01Z</time>
      </trkpt>
      <trkpt lat="45.18855" lon="5.53492">
        <ele>1124.5</ele>
        <time>2009-08-24T07:17:07Z</time>
      </trkpt>
      <trkpt lat="45.18864" lon="5.53495">
        <ele>1125.5</ele>
        <time>2009-08-24T07:17:12Z</time>
      </trkpt>
      <trkpt lat="45.18887" lon="5.53529">
        <ele>1134.4</ele>
        <time>2009-08-24T07:17:35Z</time>
      </trkpt>
      <trkpt lat="45.18892" lon="5.53548">
        <ele>1139.5</ele>
        <time>2009-08-24T07:17:43Z</time>
      </trkpt>
      <trkpt lat="45.18899" lon="5.53556">
        <ele>1142.5</ele>
        <time>2009-08-24T07:17:48Z</time>
      </trkpt>
      <trkpt lat="45.18922" lon="5.53563">
        <ele>1148</ele>
        <time>2009-08-24T07:18:01Z</time>
      </trkpt>
      <trkpt lat="45.18945" lon="5.53564">
        <ele>1151.5</ele>
        <time>2009-08-24T07:18:16Z</time>
      </trkpt>
      <trkpt lat="45.18973" lon="5.53551">
        <ele>1153</ele>
        <time>2009-08-24T07:18:39Z</time>
      </trkpt>
      <trkpt lat="45.18993" lon="5.5353">
        <ele>1152.8</ele>
        <time>2009-08-24T07:18:54Z</time>
      </trkpt>
      <trkpt lat="45.19002" lon="5.53527">
        <ele>1154</ele>
        <time>2009-08-24T07:19:01Z</time>
      </trkpt>
      <trkpt lat="45.1902" lon="5.53534">
        <ele>1153.5</ele>
        <time>2009-08-24T07:19:13Z</time>
      </trkpt>
      <trkpt lat="45.19049" lon="5.53573">
        <ele>1161.1</ele>
        <time>2009-08-24T07:19:37Z</time>
      </trkpt>
      <trkpt lat="45.19097" lon="5.53652">
        <ele>1180.8</ele>
        <time>2009-08-24T07:20:22Z</time>
      </trkpt>
      <trkpt lat="45.19111" lon="5.53657">
        <ele>1184</ele>
        <time>2009-08-24T07:20:30Z</time>
      </trkpt>
      <trkpt lat="45.19181" lon="5.53651">
        <ele>1191.6</ele>
        <time>2009-08-24T07:21:15Z</time>
      </trkpt>
      <trkpt lat="45.19226" lon="5.53661">
        <ele>1197.5</ele>
        <time>2009-08-24T07:21:42Z</time>
      </trkpt>
      <trkpt lat="45.19266" lon="5.53687">
        <ele>1204.1</ele>
        <time>2009-08-24T07:22:08Z</time>
      </trkpt>
      <trkpt lat="45.19352" lon="5.53701">
        <ele>1216.6</ele>
        <time>2009-08-24T07:22:59Z</time>
      </trkpt>
      <trkpt lat="45.19396" lon="5.53682">
        <ele>1217.3</ele>
        <time>2009-08-24T07:23:31Z</time>
      </trkpt>
      <trkpt lat="45.19455" lon="5.53694">
        <ele>1224.9</ele>
        <time>2009-08-24T07:24:06Z</time>
      </trkpt>
      <trkpt lat="45.19516" lon="5.53694">
        <ele>1226.5</ele>
        <time>2009-08-24T07:24:43Z</time>
      </trkpt>
      <trkpt lat="45.19535" lon="5.53705">
        <ele>1230.3</ele>
        <time>2009-08-24T07:24:58Z</time>
      </trkpt>
      <trkpt lat="45.19545" lon="5.537">
        <ele>1230.4</ele>
        <time>2009-08-24T07:25:43Z</time>
      </trkpt>
      <trkpt lat="45.19559" lon="5.5368">
        <ele>1237.3</ele>
        <time>2009-08-24T07:26:45Z</time>
      </trkpt>
      <trkpt lat="45.19587" lon="5.53664">
        <ele>1233.4</ele>
        <time>2009-08-24T07:27:04Z</time>
      </trkpt>
      <trkpt lat="45.1963" lon="5.53665">
        <ele>1232.1</ele>
        <time>2009-08-24T07:27:30Z</time>
      </trkpt>
      <trkpt lat="45.19663" lon="5.53684">
        <ele>1235.6</ele>
        <time>2009-08-24T07:27:51Z</time>
      </trkpt>
      <trkpt lat="45.19747" lon="5.53747">
        <ele>1240.8</ele>
        <time>2009-08-24T07:28:50Z</time>
      </trkpt>
      <trkpt lat="45.19763" lon="5.53751">
        <ele>1238.3</ele>
        <time>2009-08-24T07:29:02Z</time>
      </trkpt>
      <trkpt lat="45.19791" lon="5.53743">
        <ele>1242.9</ele>
        <time>2009-08-24T07:29:18Z</time>
      </trkpt>
      <trkpt lat="45.19797" lon="5.53737">
        <ele>1240.8</ele>
        <time>2009-08-24T07:29:23Z</time>
      </trkpt>
      <trkpt lat="45.19843" lon="5.53722">
        <ele>1245.3</ele>
        <time>2009-08-24T07:29:51Z</time>
      </trkpt>
      <trkpt lat="45.19921" lon="5.53718">
        <ele>1249</ele>
        <time>2009-08-24T07:30:40Z</time>
      </trkpt>
      <trkpt lat="45.19964" lon="5.53722">
        <ele>1256.4</ele>
        <time>2009-08-24T07:31:06Z</time>
      </trkpt>
      <trkpt lat="45.20016" lon="5.53711">
        <ele>1274.6</ele>
        <time>2009-08-24T07:31:39Z</time>
      </trkpt>
      <trkpt lat="45.20087" lon="5.53751">
        <ele>1285.1</ele>
        <time>2009-08-24T07:32:24Z</time>
      </trkpt>
      <trkpt lat="45.20096" lon="5.5376">
        <ele>1287.1</ele>
        <time>2009-08-24T07:32:31Z</time>
      </trkpt>
      <trkpt lat="45.20106" lon="5.53784">
        <ele>1292.3</ele>
        <time>2009-08-24T07:32:44Z</time>
      </trkpt>
      <trkpt lat="45.20109" lon="5.53802">
        <ele>1289.3</ele>
        <time>2009-08-24T07:32:52Z</time>
      </trkpt>
      <trkpt lat="45.20117" lon="5.53813">
        <ele>1283.9</ele>
        <time>2009-08-24T07:32:59Z</time>
      </trkpt>
      <trkpt lat="45.20148" lon="5.53823">
        <ele>1285</ele>
        <time>2009-08-24T07:33:19Z</time>
      </trkpt>
      <trkpt lat="45.20169" lon="5.5381">
        <ele>1289.5</ele>
        <time>2009-08-24T07:33:32Z</time>
      </trkpt>
      <trkpt lat="45.20208" lon="5.53798">
        <ele>1298</ele>
        <time>2009-08-24T07:33:58Z</time>
      </trkpt>
      <trkpt lat="45.20235" lon="5.53807">
        <ele>1300.5</ele>
        <time>2009-08-24T07:34:14Z</time>
      </trkpt>
      <trkpt lat="45.20251" lon="5.53823">
        <ele>1300.9</ele>
        <time>2009-08-24T07:34:25Z</time>
      </trkpt>
      <trkpt lat="45.20262" lon="5.53864">
        <ele>1302</ele>
        <time>2009-08-24T07:34:42Z</time>
      </trkpt>
      <trkpt lat="45.20267" lon="5.53874">
        <ele>1302.5</ele>
        <time>2009-08-24T07:34:47Z</time>
      </trkpt>
      <trkpt lat="45.20298" lon="5.53888">
        <ele>1300.6</ele>
        <time>2009-08-24T07:35:07Z</time>
      </trkpt>
      <trkpt lat="45.20325" lon="5.53892">
        <ele>1307.5</ele>
        <time>2009-08-24T07:35:25Z</time>
      </trkpt>
      <trkpt lat="45.20339" lon="5.53915">
        <ele>1312.9</ele>
        <time>2009-08-24T07:35:40Z</time>
      </trkpt>
      <trkpt lat="45.20339" lon="5.53927">
        <ele>1311.3</ele>
        <time>2009-08-24T07:35:45Z</time>
      </trkpt>
      <trkpt lat="45.20332" lon="5.53943">
        <ele>1309</ele>
        <time>2009-08-24T07:35:53Z</time>
      </trkpt>
      <trkpt lat="45.20314" lon="5.53968">
        <ele>1313.3</ele>
        <time>2009-08-24T07:36:08Z</time>
      </trkpt>
      <trkpt lat="45.20278" lon="5.54035">
        <ele>1323.3</ele>
        <time>2009-08-24T07:36:41Z</time>
      </trkpt>
      <trkpt lat="45.20269" lon="5.54046">
        <ele>1325.8</ele>
        <time>2009-08-24T07:36:47Z</time>
      </trkpt>
      <trkpt lat="45.20195" lon="5.54061">
        <ele>1335</ele>
        <time>2009-08-24T07:37:21Z</time>
      </trkpt>
      <trkpt lat="45.20148" lon="5.54085">
        <ele>1336.4</ele>
        <time>2009-08-24T07:37:37Z</time>
      </trkpt>
      <trkpt lat="45.2011" lon="5.54088">
        <ele>1339</ele>
        <time>2009-08-24T07:37:47Z</time>
      </trkpt>
      <trkpt lat="45.2008" lon="5.54083">
        <ele>1341.5</ele>
        <time>2009-08-24T07:37:55Z</time>
      </trkpt>
      <trkpt lat="45.20035" lon="5.54045">
        <ele>1343.6</ele>
        <time>2009-08-24T07:38:08Z</time>
      </trkpt>
      <trkpt lat="45.20016" lon="5.54046">
        <ele>1347.8</ele>
        <time>2009-08-24T07:38:13Z</time>
      </trkpt>
      <trkpt lat="45.19999" lon="5.54052">
        <ele>1349</ele>
        <time>2009-08-24T07:38:18Z</time>
      </trkpt>
      <trkpt lat="45.19902" lon="5.54108">
        <ele>1352.1</ele>
        <time>2009-08-24T07:38:47Z</time>
      </trkpt>
      <trkpt lat="45.19899" lon="5.54114">
        <ele>1352</ele>
        <time>2009-08-24T07:38:49Z</time>
      </trkpt>
      <trkpt lat="45.19901" lon="5.5412">
        <ele>1355</ele>
        <time>2009-08-24T07:39:08Z</time>
      </trkpt>
      <trkpt lat="45.19894" lon="5.54117">
        <ele>1354.8</ele>
        <time>2009-08-24T07:39:29Z</time>
      </trkpt>
      <trkpt lat="45.19835" lon="5.54163">
        <ele>1354</ele>
        <time>2009-08-24T07:39:50Z</time>
      </trkpt>
      <trkpt lat="45.19823" lon="5.5418">
        <ele>1353.1</ele>
        <time>2009-08-24T07:39:54Z</time>
      </trkpt>
      <trkpt lat="45.19808" lon="5.54209">
        <ele>1353</ele>
        <time>2009-08-24T07:39:59Z</time>
      </trkpt>
      <trkpt lat="45.19788" lon="5.54236">
        <ele>1354.1</ele>
        <time>2009-08-24T07:40:04Z</time>
      </trkpt>
      <trkpt lat="45.19782" lon="5.5425">
        <ele>1354.5</ele>
        <time>2009-08-24T07:40:06Z</time>
      </trkpt>
      <trkpt lat="45.19777" lon="5.54285">
        <ele>1352.9</ele>
        <time>2009-08-24T07:40:10Z</time>
      </trkpt>
      <trkpt lat="45.19801" lon="5.54386">
        <ele>1345.4</ele>
        <time>2009-08-24T07:40:21Z</time>
      </trkpt>
      <trkpt lat="45.19799" lon="5.54405">
        <ele>1344</ele>
        <time>2009-08-24T07:40:23Z</time>
      </trkpt>
      <trkpt lat="45.19764" lon="5.54467">
        <ele>1342.5</ele>
        <time>2009-08-24T07:40:31Z</time>
      </trkpt>
      <trkpt lat="45.19666" lon="5.54586">
        <ele>1340.6</ele>
        <time>2009-08-24T07:40:49Z</time>
      </trkpt>
      <trkpt lat="45.1966" lon="5.54603">
        <ele>1341.3</ele>
        <time>2009-08-24T07:40:51Z</time>
      </trkpt>
      <trkpt lat="45.19668" lon="5.54721">
        <ele>1337.8</ele>
        <time>2009-08-24T07:41:03Z</time>
      </trkpt>
      <trkpt lat="45.19673" lon="5.54739">
        <ele>1337.5</ele>
        <time>2009-08-24T07:41:05Z</time>
      </trkpt>
      <trkpt lat="45.197" lon="5.54787">
        <ele>1338</ele>
        <time>2009-08-24T07:41:12Z</time>
      </trkpt>
      <trkpt lat="45.19702" lon="5.54806">
        <ele>1337.5</ele>
        <time>2009-08-24T07:41:14Z</time>
      </trkpt>
      <trkpt lat="45.19678" lon="5.54896">
        <ele>1332</ele>
        <time>2009-08-24T07:41:24Z</time>
      </trkpt>
      <trkpt lat="45.19689" lon="5.54915">
        <ele>1331.5</ele>
        <time>2009-08-24T07:41:27Z</time>
      </trkpt>
      <trkpt lat="45.19725" lon="5.54927">
        <ele>1332.8</ele>
        <time>2009-08-24T07:41:32Z</time>
      </trkpt>
      <trkpt lat="45.19749" lon="5.54929">
        <ele>1333.6</ele>
        <time>2009-08-24T07:41:35Z</time>
      </trkpt>
      <trkpt lat="45.19773" lon="5.54916">
        <ele>1333.5</ele>
        <time>2009-08-24T07:41:38Z</time>
      </trkpt>
      <trkpt lat="45.19806" lon="5.54889">
        <ele>1333.1</ele>
        <time>2009-08-24T07:41:42Z</time>
      </trkpt>
      <trkpt lat="45.19851" lon="5.5486">
        <ele>1333</ele>
        <time>2009-08-24T07:41:47Z</time>
      </trkpt>
      <trkpt lat="45.1988" lon="5.54836">
        <ele>1333.9</ele>
        <time>2009-08-24T07:41:50Z</time>
      </trkpt>
      <trkpt lat="45.1994" lon="5.54774">
        <ele>1337.3</ele>
        <time>2009-08-24T07:41:59Z</time>
      </trkpt>
      <trkpt lat="45.19956" lon="5.5478">
        <ele>1337.4</ele>
        <time>2009-08-24T07:42:02Z</time>
      </trkpt>
      <trkpt lat="45.1996" lon="5.54786">
        <ele>1338.3</ele>
        <time>2009-08-24T07:42:03Z</time>
      </trkpt>
      <trkpt lat="45.19966" lon="5.54854">
        <ele>1340.1</ele>
        <time>2009-08-24T07:42:11Z</time>
      </trkpt>
      <trkpt lat="45.19976" lon="5.54885">
        <ele>1336.9</ele>
        <time>2009-08-24T07:42:15Z</time>
      </trkpt>
      <trkpt lat="45.19992" lon="5.5492">
        <ele>1332</ele>
        <time>2009-08-24T07:42:20Z</time>
      </trkpt>
      <trkpt lat="45.19988" lon="5.54935">
        <ele>1331.8</ele>
        <time>2009-08-24T07:42:22Z</time>
      </trkpt>
      <trkpt lat="45.19933" lon="5.55015">
        <ele>1330.5</ele>
        <time>2009-08-24T07:42:32Z</time>
      </trkpt>
      <trkpt lat="45.19924" lon="5.55049">
        <ele>1324.5</ele>
        <time>2009-08-24T07:42:35Z</time>
      </trkpt>
      <trkpt lat="45.19922" lon="5.55097">
        <ele>1328.1</ele>
        <time>2009-08-24T07:42:39Z</time>
      </trkpt>
      <trkpt lat="45.19914" lon="5.55128">
        <ele>1328</ele>
        <time>2009-08-24T07:42:42Z</time>
      </trkpt>
      <trkpt lat="45.19897" lon="5.5515">
        <ele>1327.3</ele>
        <time>2009-08-24T07:42:45Z</time>
      </trkpt>
      <trkpt lat="45.19874" lon="5.5516">
        <ele>1327.5</ele>
        <time>2009-08-24T07:42:48Z</time>
      </trkpt>
      <trkpt lat="45.19783" lon="5.55172">
        <ele>1326.4</ele>
        <time>2009-08-24T07:42:57Z</time>
      </trkpt>
      <trkpt lat="45.19766" lon="5.55183">
        <ele>1327.8</ele>
        <time>2009-08-24T07:42:59Z</time>
      </trkpt>
      <trkpt lat="45.19744" lon="5.55217">
        <ele>1316.8</ele>
        <time>2009-08-24T07:43:03Z</time>
      </trkpt>
      <trkpt lat="45.19723" lon="5.5528">
        <ele>1306.4</ele>
        <time>2009-08-24T07:43:09Z</time>
      </trkpt>
      <trkpt lat="45.19708" lon="5.55306">
        <ele>1303.4</ele>
        <time>2009-08-24T07:43:12Z</time>
      </trkpt>
      <trkpt lat="45.19707" lon="5.55322">
        <ele>1303.8</ele>
        <time>2009-08-24T07:43:14Z</time>
      </trkpt>
      <trkpt lat="45.19712" lon="5.55337">
        <ele>1301.5</ele>
        <time>2009-08-24T07:43:16Z</time>
      </trkpt>
      <trkpt lat="45.19759" lon="5.55389">
        <ele>1289.9</ele>
        <time>2009-08-24T07:43:24Z</time>
      </trkpt>
      <trkpt lat="45.19863" lon="5.55471">
        <ele>1284.5</ele>
        <time>2009-08-24T07:43:37Z</time>
      </trkpt>
      <trkpt lat="45.19872" lon="5.55484">
        <ele>1283.9</ele>
        <time>2009-08-24T07:43:39Z</time>
      </trkpt>
      <trkpt lat="45.19874" lon="5.55499">
        <ele>1284.3</ele>
        <time>2009-08-24T07:43:41Z</time>
      </trkpt>
      <trkpt lat="45.19869" lon="5.55528">
        <ele>1281</ele>
        <time>2009-08-24T07:43:45Z</time>
      </trkpt>
      <trkpt lat="45.19881" lon="5.55556">
        <ele>1280.6</ele>
        <time>2009-08-24T07:43:49Z</time>
      </trkpt>
      <trkpt lat="45.19884" lon="5.55614">
        <ele>1278</ele>
        <time>2009-08-24T07:43:55Z</time>
      </trkpt>
      <trkpt lat="45.19894" lon="5.55641">
        <ele>1276.5</ele>
        <time>2009-08-24T07:43:58Z</time>
      </trkpt>
      <trkpt lat="45.19906" lon="5.55651">
        <ele>1272.8</ele>
        <time>2009-08-24T07:44:00Z</time>
      </trkpt>
      <trkpt lat="45.19959" lon="5.55666">
        <ele>1268.9</ele>
        <time>2009-08-24T07:44:08Z</time>
      </trkpt>
      <trkpt lat="45.19966" lon="5.55685">
        <ele>1269.1</ele>
        <time>2009-08-24T07:44:11Z</time>
      </trkpt>
      <trkpt lat="45.19959" lon="5.55704">
        <ele>1267.3</ele>
        <time>2009-08-24T07:44:14Z</time>
      </trkpt>
      <trkpt lat="45.19932" lon="5.55713">
        <ele>1265.6</ele>
        <time>2009-08-24T07:44:21Z</time>
      </trkpt>
      <trkpt lat="45.19933" lon="5.5572">
        <ele>1266.1</ele>
        <time>2009-08-24T07:44:23Z</time>
      </trkpt>
      <trkpt lat="45.1994" lon="5.55727">
        <ele>1264</ele>
        <time>2009-08-24T07:44:26Z</time>
      </trkpt>
      <trkpt lat="45.19981" lon="5.55721">
        <ele>1248.5</ele>
        <time>2009-08-24T07:44:44Z</time>
      </trkpt>
      <trkpt lat="45.19981" lon="5.55726">
        <ele>1248.1</ele>
        <time>2009-08-24T07:44:46Z</time>
      </trkpt>
      <trkpt lat="45.2006" lon="5.5574">
        <ele>1241.8</ele>
        <time>2009-08-24T07:45:12Z</time>
      </trkpt>
      <trkpt lat="45.20083" lon="5.5575">
        <ele>1240.5</ele>
        <time>2009-08-24T07:45:23Z</time>
      </trkpt>
      <trkpt lat="45.20092" lon="5.5576">
        <ele>1238.8</ele>
        <time>2009-08-24T07:45:28Z</time>
      </trkpt>
      <trkpt lat="45.20113" lon="5.55768">
        <ele>1238.5</ele>
        <time>2009-08-24T07:45:38Z</time>
      </trkpt>
      <trkpt lat="45.20186" lon="5.55816">
        <ele>1241</ele>
        <time>2009-08-24T07:46:13Z</time>
      </trkpt>
      <trkpt lat="45.20195" lon="5.55873">
        <ele>1250.1</ele>
        <time>2009-08-24T07:46:33Z</time>
      </trkpt>
      <trkpt lat="45.2021" lon="5.55917">
        <ele>1246.8</ele>
        <time>2009-08-24T07:46:44Z</time>
      </trkpt>
      <trkpt lat="45.20223" lon="5.55933">
        <ele>1247.4</ele>
        <time>2009-08-24T07:46:50Z</time>
      </trkpt>
      <trkpt lat="45.20254" lon="5.55946">
        <ele>1243.8</ele>
        <time>2009-08-24T07:47:05Z</time>
      </trkpt>
      <trkpt lat="45.20269" lon="5.5596">
        <ele>1244</ele>
        <time>2009-08-24T07:47:14Z</time>
      </trkpt>
      <trkpt lat="45.2028" lon="5.55964">
        <ele>1245</ele>
        <time>2009-08-24T07:47:19Z</time>
      </trkpt>
      <trkpt lat="45.20328" lon="5.55955">
        <ele>1249.8</ele>
        <time>2009-08-24T07:47:39Z</time>
      </trkpt>
      <trkpt lat="45.20384" lon="5.55935">
        <ele>1263.5</ele>
        <time>2009-08-24T07:48:08Z</time>
      </trkpt>
      <trkpt lat="45.20423" lon="5.55931">
        <ele>1266.6</ele>
        <time>2009-08-24T07:48:28Z</time>
      </trkpt>
      <trkpt lat="45.20451" lon="5.55922">
        <ele>1273</ele>
        <time>2009-08-24T07:48:43Z</time>
      </trkpt>
      <trkpt lat="45.20558" lon="5.55961">
        <ele>1272.5</ele>
        <time>2009-08-24T07:49:30Z</time>
      </trkpt>
      <trkpt lat="45.20581" lon="5.55951">
        <ele>1279.9</ele>
        <time>2009-08-24T07:49:42Z</time>
      </trkpt>
      <trkpt lat="45.20588" lon="5.55953">
        <ele>1279.5</ele>
        <time>2009-08-24T07:49:46Z</time>
      </trkpt>
      <trkpt lat="45.20637" lon="5.55933">
        <ele>1287.5</ele>
        <time>2009-08-24T07:50:06Z</time>
      </trkpt>
      <trkpt lat="45.20651" lon="5.55921">
        <ele>1294</ele>
        <time>2009-08-24T07:50:14Z</time>
      </trkpt>
      <trkpt lat="45.20671" lon="5.55892">
        <ele>1289.9</ele>
        <time>2009-08-24T07:50:26Z</time>
      </trkpt>
      <trkpt lat="45.20711" lon="5.55862">
        <ele>1282.5</ele>
        <time>2009-08-24T07:50:42Z</time>
      </trkpt>
      <trkpt lat="45.20756" lon="5.55855">
        <ele>1283</ele>
        <time>2009-08-24T07:50:56Z</time>
      </trkpt>
      <trkpt lat="45.20785" lon="5.55861">
        <ele>1280.1</ele>
        <time>2009-08-24T07:51:07Z</time>
      </trkpt>
      <trkpt lat="45.20794" lon="5.55856">
        <ele>1283</ele>
        <time>2009-08-24T07:51:14Z</time>
      </trkpt>
      <trkpt lat="45.20851" lon="5.55863">
        <ele>1285.1</ele>
        <time>2009-08-24T07:51:33Z</time>
      </trkpt>
      <trkpt lat="45.20896" lon="5.55863">
        <ele>1282</ele>
        <time>2009-08-24T07:51:51Z</time>
      </trkpt>
      <trkpt lat="45.20925" lon="5.55874">
        <ele>1287.4</ele>
        <time>2009-08-24T07:52:03Z</time>
      </trkpt>
      <trkpt lat="45.2095" lon="5.55894">
        <ele>1286.8</ele>
        <time>2009-08-24T07:52:13Z</time>
      </trkpt>
      <trkpt lat="45.20954" lon="5.55902">
        <ele>1284.5</ele>
        <time>2009-08-24T07:52:16Z</time>
      </trkpt>
      <trkpt lat="45.20986" lon="5.5593">
        <ele>1283.1</ele>
        <time>2009-08-24T07:52:32Z</time>
      </trkpt>
      <trkpt lat="45.21" lon="5.55937">
        <ele>1282.6</ele>
        <time>2009-08-24T07:52:38Z</time>
      </trkpt>
      <trkpt lat="45.21035" lon="5.55932">
        <ele>1286</ele>
        <time>2009-08-24T07:52:57Z</time>
      </trkpt>
      <trkpt lat="45.2106" lon="5.55912">
        <ele>1286.8</ele>
        <time>2009-08-24T07:53:04Z</time>
      </trkpt>
      <trkpt lat="45.21086" lon="5.55912">
        <ele>1287.6</ele>
        <time>2009-08-24T07:53:09Z</time>
      </trkpt>
      <trkpt lat="45.21198" lon="5.55953">
        <ele>1295</ele>
        <time>2009-08-24T07:53:41Z</time>
      </trkpt>
      <trkpt lat="45.21237" lon="5.55972">
        <ele>1296.5</ele>
        <time>2009-08-24T07:53:53Z</time>
      </trkpt>
      <trkpt lat="45.21297" lon="5.55988">
        <ele>1293.9</ele>
        <time>2009-08-24T07:54:14Z</time>
      </trkpt>
      <trkpt lat="45.21336" lon="5.56005">
        <ele>1296.9</ele>
        <time>2009-08-24T07:54:27Z</time>
      </trkpt>
      <trkpt lat="45.21357" lon="5.56008">
        <ele>1299.6</ele>
        <time>2009-08-24T07:54:34Z</time>
      </trkpt>
      <trkpt lat="45.21637" lon="5.55992">
        <ele>1297.6</ele>
        <time>2009-08-24T07:55:50Z</time>
      </trkpt>
      <trkpt lat="45.21811" lon="5.5602">
        <ele>1299.8</ele>
        <time>2009-08-24T07:56:36Z</time>
      </trkpt>
      <trkpt lat="45.21809" lon="5.56017">
        <ele>1302.6</ele>
        <time>2009-08-24T07:59:11Z</time>
      </trkpt>
      <trkpt lat="45.21841" lon="5.56094">
        <ele>1304.3</ele>
        <time>2009-08-24T08:00:38Z</time>
      </trkpt>
      <trkpt lat="45.21936" lon="5.5626">
        <ele>1307.1</ele>
        <time>2009-08-24T08:01:27Z</time>
      </trkpt>
      <trkpt lat="45.21951" lon="5.56301">
        <ele>1310</ele>
        <time>2009-08-24T08:01:40Z</time>
      </trkpt>
      <trkpt lat="45.21977" lon="5.56356">
        <ele>1307.4</ele>
        <time>2009-08-24T08:01:59Z</time>
      </trkpt>
      <trkpt lat="45.21987" lon="5.56388">
        <ele>1307</ele>
        <time>2009-08-24T08:02:10Z</time>
      </trkpt>
      <trkpt lat="45.21998" lon="5.56403">
        <ele>1307.5</ele>
        <time>2009-08-24T08:02:16Z</time>
      </trkpt>
      <trkpt lat="45.22" lon="5.56412">
        <ele>1307.6</ele>
        <time>2009-08-24T08:02:20Z</time>
      </trkpt>
      <trkpt lat="45.22051" lon="5.56488">
        <ele>1307.5</ele>
        <time>2009-08-24T08:02:54Z</time>
      </trkpt>
      <trkpt lat="45.22063" lon="5.56524">
        <ele>1307.5</ele>
        <time>2009-08-24T08:03:07Z</time>
      </trkpt>
      <trkpt lat="45.2207" lon="5.56533">
        <ele>1306.9</ele>
        <time>2009-08-24T08:03:10Z</time>
      </trkpt>
      <trkpt lat="45.22079" lon="5.56569">
        <ele>1306.5</ele>
        <time>2009-08-24T08:03:22Z</time>
      </trkpt>
      <trkpt lat="45.22086" lon="5.56623">
        <ele>1310.4</ele>
        <time>2009-08-24T08:03:37Z</time>
      </trkpt>
      <trkpt lat="45.22077" lon="5.56661">
        <ele>1316</ele>
        <time>2009-08-24T08:03:49Z</time>
      </trkpt>
      <trkpt lat="45.22033" lon="5.56733">
        <ele>1327.9</ele>
        <time>2009-08-24T08:04:22Z</time>
      </trkpt>
      <trkpt lat="45.22017" lon="5.56795">
        <ele>1340.9</ele>
        <time>2009-08-24T08:04:47Z</time>
      </trkpt>
      <trkpt lat="45.22008" lon="5.5682">
        <ele>1343.3</ele>
        <time>2009-08-24T08:04:57Z</time>
      </trkpt>
      <trkpt lat="45.22005" lon="5.56839">
        <ele>1351.5</ele>
        <time>2009-08-24T08:05:04Z</time>
      </trkpt>
      <trkpt lat="45.21978" lon="5.56893">
        <ele>1360.5</ele>
        <time>2009-08-24T08:05:28Z</time>
      </trkpt>
      <trkpt lat="45.21972" lon="5.56898">
        <ele>1361.1</ele>
        <time>2009-08-24T08:05:33Z</time>
      </trkpt>
      <trkpt lat="45.21938" lon="5.56893">
        <ele>1356.4</ele>
        <time>2009-08-24T08:05:47Z</time>
      </trkpt>
      <trkpt lat="45.21914" lon="5.56914">
        <ele>1357.4</ele>
        <time>2009-08-24T08:06:01Z</time>
      </trkpt>
      <trkpt lat="45.21908" lon="5.56928">
        <ele>1356.1</ele>
        <time>2009-08-24T08:06:08Z</time>
      </trkpt>
      <trkpt lat="45.21908" lon="5.5694">
        <ele>1353.4</ele>
        <time>2009-08-24T08:06:14Z</time>
      </trkpt>
      <trkpt lat="45.21912" lon="5.56946">
        <ele>1354.6</ele>
        <time>2009-08-24T08:06:18Z</time>
      </trkpt>
      <trkpt lat="45.21929" lon="5.56951">
        <ele>1351</ele>
        <time>2009-08-24T08:06:28Z</time>
      </trkpt>
      <trkpt lat="45.21979" lon="5.5694">
        <ele>1351.6</ele>
        <time>2009-08-24T08:06:53Z</time>
      </trkpt>
      <trkpt lat="45.2199" lon="5.56945">
        <ele>1350.8</ele>
        <time>2009-08-24T08:07:00Z</time>
      </trkpt>
      <trkpt lat="45.22" lon="5.56962">
        <ele>1349</ele>
        <time>2009-08-24T08:07:09Z</time>
      </trkpt>
      <trkpt lat="45.21988" lon="5.57021">
        <ele>1351.9</ele>
        <time>2009-08-24T08:07:32Z</time>
      </trkpt>
      <trkpt lat="45.21989" lon="5.57051">
        <ele>1353.4</ele>
        <time>2009-08-24T08:07:41Z</time>
      </trkpt>
      <trkpt lat="45.22008" lon="5.57092">
        <ele>1354.3</ele>
        <time>2009-08-24T08:07:52Z</time>
      </trkpt>
      <trkpt lat="45.22004" lon="5.57116">
        <ele>1355.6</ele>
        <time>2009-08-24T08:07:58Z</time>
      </trkpt>
      <trkpt lat="45.21997" lon="5.57131">
        <ele>1356.9</ele>
        <time>2009-08-24T08:08:04Z</time>
      </trkpt>
      <trkpt lat="45.21997" lon="5.5716">
        <ele>1356.6</ele>
        <time>2009-08-24T08:08:13Z</time>
      </trkpt>
      <trkpt lat="45.22038" lon="5.57246">
        <ele>1369.4</ele>
        <time>2009-08-24T08:08:58Z</time>
      </trkpt>
      <trkpt lat="45.22049" lon="5.57246">
        <ele>1373</ele>
        <time>2009-08-24T08:09:06Z</time>
      </trkpt>
      <trkpt lat="45.2206" lon="5.57238">
        <ele>1373.6</ele>
        <time>2009-08-24T08:09:13Z</time>
      </trkpt>
      <trkpt lat="45.22086" lon="5.57198">
        <ele>1374.8</ele>
        <time>2009-08-24T08:09:34Z</time>
      </trkpt>
      <trkpt lat="45.22094" lon="5.57194">
        <ele>1375.6</ele>
        <time>2009-08-24T08:09:39Z</time>
      </trkpt>
      <trkpt lat="45.22103" lon="5.57195">
        <ele>1376.5</ele>
        <time>2009-08-24T08:09:44Z</time>
      </trkpt>
      <trkpt lat="45.22113" lon="5.57223">
        <ele>1375.3</ele>
        <time>2009-08-24T08:09:57Z</time>
      </trkpt>
      <trkpt lat="45.2213" lon="5.57256">
        <ele>1373.8</ele>
        <time>2009-08-24T08:10:14Z</time>
      </trkpt>
      <trkpt lat="45.2216" lon="5.57287">
        <ele>1376</ele>
        <time>2009-08-24T08:10:34Z</time>
      </trkpt>
      <trkpt lat="45.22174" lon="5.57297">
        <ele>1377.4</ele>
        <time>2009-08-24T08:10:41Z</time>
      </trkpt>
      <trkpt lat="45.22222" lon="5.57293">
        <ele>1389.5</ele>
        <time>2009-08-24T08:11:07Z</time>
      </trkpt>
      <trkpt lat="45.2223" lon="5.57289">
        <ele>1392.4</ele>
        <time>2009-08-24T08:11:10Z</time>
      </trkpt>
      <trkpt lat="45.22265" lon="5.57285">
        <ele>1401.5</ele>
        <time>2009-08-24T08:11:22Z</time>
      </trkpt>
      <trkpt lat="45.22307" lon="5.57262">
        <ele>1407.5</ele>
        <time>2009-08-24T08:11:36Z</time>
      </trkpt>
      <trkpt lat="45.2235" lon="5.57222">
        <ele>1416.1</ele>
        <time>2009-08-24T08:11:48Z</time>
      </trkpt>
      <trkpt lat="45.22359" lon="5.57218">
        <ele>1418.3</ele>
        <time>2009-08-24T08:11:52Z</time>
      </trkpt>
      <trkpt lat="45.22382" lon="5.5723">
        <ele>1415</ele>
        <time>2009-08-24T08:12:04Z</time>
      </trkpt>
      <trkpt lat="45.22407" lon="5.57223">
        <ele>1416.5</ele>
        <time>2009-08-24T08:12:17Z</time>
      </trkpt>
      <trkpt lat="45.22418" lon="5.57213">
        <ele>1419.5</ele>
        <time>2009-08-24T08:12:24Z</time>
      </trkpt>
      <trkpt lat="45.22451" lon="5.57163">
        <ele>1422</ele>
        <time>2009-08-24T08:12:58Z</time>
      </trkpt>
      <trkpt lat="45.22465" lon="5.57153">
        <ele>1421.4</ele>
        <time>2009-08-24T08:13:08Z</time>
      </trkpt>
      <trkpt lat="45.22518" lon="5.5715">
        <ele>1425.4</ele>
        <time>2009-08-24T08:13:45Z</time>
      </trkpt>
      <trkpt lat="45.22535" lon="5.57156">
        <ele>1422.1</ele>
        <time>2009-08-24T08:13:53Z</time>
      </trkpt>
      <trkpt lat="45.22562" lon="5.57173">
        <ele>1416.9</ele>
        <time>2009-08-24T08:14:06Z</time>
      </trkpt>
      <trkpt lat="45.22574" lon="5.57193">
        <ele>1415.1</ele>
        <time>2009-08-24T08:14:16Z</time>
      </trkpt>
      <trkpt lat="45.22584" lon="5.57257">
        <ele>1415.4</ele>
        <time>2009-08-24T08:14:38Z</time>
      </trkpt>
      <trkpt lat="45.22599" lon="5.57295">
        <ele>1428.6</ele>
        <time>2009-08-24T08:14:54Z</time>
      </trkpt>
      <trkpt lat="45.22607" lon="5.57296">
        <ele>1430</ele>
        <time>2009-08-24T08:14:59Z</time>
      </trkpt>
      <trkpt lat="45.2263" lon="5.57313">
        <ele>1438.3</ele>
        <time>2009-08-24T08:15:13Z</time>
      </trkpt>
      <trkpt lat="45.22631" lon="5.57324">
        <ele>1439.6</ele>
        <time>2009-08-24T08:15:18Z</time>
      </trkpt>
      <trkpt lat="45.22644" lon="5.57333">
        <ele>1438.5</ele>
        <time>2009-08-24T08:15:24Z</time>
      </trkpt>
      <trkpt lat="45.22646" lon="5.57338">
        <ele>1438</ele>
        <time>2009-08-24T08:15:27Z</time>
      </trkpt>
      <trkpt lat="45.22679" lon="5.5736">
        <ele>1435.5</ele>
        <time>2009-08-24T08:15:36Z</time>
      </trkpt>
      <trkpt lat="45.22833" lon="5.57425">
        <ele>1430.9</ele>
        <time>2009-08-24T08:16:03Z</time>
      </trkpt>
      <trkpt lat="45.22882" lon="5.57422">
        <ele>1432.5</ele>
        <time>2009-08-24T08:16:25Z</time>
      </trkpt>
      <trkpt lat="45.22937" lon="5.5741">
        <ele>1433.9</ele>
        <time>2009-08-24T08:16:50Z</time>
      </trkpt>
      <trkpt lat="45.22965" lon="5.57412">
        <ele>1432.8</ele>
        <time>2009-08-24T08:17:03Z</time>
      </trkpt>
      <trkpt lat="45.22981" lon="5.57418">
        <ele>1430.5</ele>
        <time>2009-08-24T08:17:12Z</time>
      </trkpt>
      <trkpt lat="45.23001" lon="5.57419">
        <ele>1429.3</ele>
        <time>2009-08-24T08:17:20Z</time>
      </trkpt>
      <trkpt lat="45.23018" lon="5.57408">
        <ele>1432</ele>
        <time>2009-08-24T08:17:31Z</time>
      </trkpt>
      <trkpt lat="45.23032" lon="5.57406">
        <ele>1431.5</ele>
        <time>2009-08-24T08:17:38Z</time>
      </trkpt>
      <trkpt lat="45.23055" lon="5.57411">
        <ele>1433</ele>
        <time>2009-08-24T08:17:52Z</time>
      </trkpt>
      <trkpt lat="45.2307" lon="5.5743">
        <ele>1432.5</ele>
        <time>2009-08-24T08:18:03Z</time>
      </trkpt>
      <trkpt lat="45.23091" lon="5.57485">
        <ele>1433.3</ele>
        <time>2009-08-24T08:18:26Z</time>
      </trkpt>
      <trkpt lat="45.23092" lon="5.57517">
        <ele>1436.6</ele>
        <time>2009-08-24T08:18:38Z</time>
      </trkpt>
      <trkpt lat="45.23097" lon="5.57541">
        <ele>1439</ele>
        <time>2009-08-24T08:18:48Z</time>
      </trkpt>
      <trkpt lat="45.23093" lon="5.57609">
        <ele>1449.5</ele>
        <time>2009-08-24T08:19:13Z</time>
      </trkpt>
      <trkpt lat="45.23101" lon="5.57629">
        <ele>1452.9</ele>
        <time>2009-08-24T08:19:21Z</time>
      </trkpt>
      <trkpt lat="45.23115" lon="5.57635">
        <ele>1461.4</ele>
        <time>2009-08-24T08:19:29Z</time>
      </trkpt>
      <trkpt lat="45.23127" lon="5.57622">
        <ele>1468.1</ele>
        <time>2009-08-24T08:19:38Z</time>
      </trkpt>
      <trkpt lat="45.2313" lon="5.57583">
        <ele>1479.5</ele>
        <time>2009-08-24T08:19:55Z</time>
      </trkpt>
      <trkpt lat="45.23149" lon="5.57542">
        <ele>1486.9</ele>
        <time>2009-08-24T08:20:12Z</time>
      </trkpt>
      <trkpt lat="45.23189" lon="5.57505">
        <ele>1500.9</ele>
        <time>2009-08-24T08:20:36Z</time>
      </trkpt>
      <trkpt lat="45.23211" lon="5.57478">
        <ele>1506.5</ele>
        <time>2009-08-24T08:20:48Z</time>
      </trkpt>
      <trkpt lat="45.23226" lon="5.57475">
        <ele>1507.6</ele>
        <time>2009-08-24T08:20:54Z</time>
      </trkpt>
      <trkpt lat="45.233" lon="5.57503">
        <ele>1503.9</ele>
        <time>2009-08-24T08:21:23Z</time>
      </trkpt>
      <trkpt lat="45.23354" lon="5.57539">
        <ele>1494.1</ele>
        <time>2009-08-24T08:21:41Z</time>
      </trkpt>
      <trkpt lat="45.23375" lon="5.57543">
        <ele>1492</ele>
        <time>2009-08-24T08:21:52Z</time>
      </trkpt>
      <trkpt lat="45.23387" lon="5.57539">
        <ele>1491.6</ele>
        <time>2009-08-24T08:21:58Z</time>
      </trkpt>
      <trkpt lat="45.23402" lon="5.57541">
        <ele>1492</ele>
        <time>2009-08-24T08:22:06Z</time>
      </trkpt>
      <trkpt lat="45.23423" lon="5.57565">
        <ele>1486.5</ele>
        <time>2009-08-24T08:22:20Z</time>
      </trkpt>
      <trkpt lat="45.23445" lon="5.57576">
        <ele>1492</ele>
        <time>2009-08-24T08:22:36Z</time>
      </trkpt>
      <trkpt lat="45.23452" lon="5.57574">
        <ele>1495</ele>
        <time>2009-08-24T08:22:41Z</time>
      </trkpt>
      <trkpt lat="45.23494" lon="5.57587">
        <ele>1505.9</ele>
        <time>2009-08-24T08:23:17Z</time>
      </trkpt>
      <trkpt lat="45.23514" lon="5.57611">
        <ele>1509.8</ele>
        <time>2009-08-24T08:23:52Z</time>
      </trkpt>
      <trkpt lat="45.23523" lon="5.57642">
        <ele>1512.4</ele>
        <time>2009-08-24T08:24:07Z</time>
      </trkpt>
      <trkpt lat="45.23533" lon="5.57655">
        <ele>1515</ele>
        <time>2009-08-24T08:24:18Z</time>
      </trkpt>
      <trkpt lat="45.23569" lon="5.5767">
        <ele>1522.4</ele>
        <time>2009-08-24T08:24:43Z</time>
      </trkpt>
      <trkpt lat="45.23586" lon="5.57686">
        <ele>1524.5</ele>
        <time>2009-08-24T08:25:04Z</time>
      </trkpt>
      <trkpt lat="45.23596" lon="5.57689">
        <ele>1523.4</ele>
        <time>2009-08-24T08:25:23Z</time>
      </trkpt>
      <trkpt lat="45.23613" lon="5.5771">
        <ele>1524.4</ele>
        <time>2009-08-24T08:25:37Z</time>
      </trkpt>
      <trkpt lat="45.23629" lon="5.57712">
        <ele>1525</ele>
        <time>2009-08-24T08:25:40Z</time>
      </trkpt>
      <trkpt lat="45.23638" lon="5.57705">
        <ele>1529</ele>
        <time>2009-08-24T08:25:47Z</time>
      </trkpt>
      <trkpt lat="45.2368" lon="5.577">
        <ele>1535.6</ele>
        <time>2009-08-24T08:26:07Z</time>
      </trkpt>
      <trkpt lat="45.23704" lon="5.57714">
        <ele>1541.5</ele>
        <time>2009-08-24T08:26:21Z</time>
      </trkpt>
      <trkpt lat="45.23721" lon="5.57717">
        <ele>1545.1</ele>
        <time>2009-08-24T08:26:30Z</time>
      </trkpt>
      <trkpt lat="45.23735" lon="5.57729">
        <ele>1551.4</ele>
        <time>2009-08-24T08:26:43Z</time>
      </trkpt>
      <trkpt lat="45.23754" lon="5.57735">
        <ele>1552.8</ele>
        <time>2009-08-24T08:26:55Z</time>
      </trkpt>
      <trkpt lat="45.23767" lon="5.57731">
        <ele>1553.6</ele>
        <time>2009-08-24T08:27:02Z</time>
      </trkpt>
      <trkpt lat="45.23779" lon="5.57732">
        <ele>1554.9</ele>
        <time>2009-08-24T08:27:09Z</time>
      </trkpt>
      <trkpt lat="45.23835" lon="5.57761">
        <ele>1553.1</ele>
        <time>2009-08-24T08:27:29Z</time>
      </trkpt>
      <trkpt lat="45.23875" lon="5.57768">
        <ele>1549.9</ele>
        <time>2009-08-24T08:27:40Z</time>
      </trkpt>
      <trkpt lat="45.23886" lon="5.57789">
        <ele>1547.5</ele>
        <time>2009-08-24T08:27:51Z</time>
      </trkpt>
      <trkpt lat="45.23889" lon="5.57816">
        <ele>1546.8</ele>
        <time>2009-08-24T08:28:00Z</time>
      </trkpt>
      <trkpt lat="45.23894" lon="5.57822">
        <ele>1545.9</ele>
        <time>2009-08-24T08:28:02Z</time>
      </trkpt>
      <trkpt lat="45.23915" lon="5.57822">
        <ele>1545</ele>
        <time>2009-08-24T08:28:07Z</time>
      </trkpt>
      <trkpt lat="45.23932" lon="5.57814">
        <ele>1543.5</ele>
        <time>2009-08-24T08:28:11Z</time>
      </trkpt>
      <trkpt lat="45.23961" lon="5.57787">
        <ele>1540</ele>
        <time>2009-08-24T08:28:22Z</time>
      </trkpt>
      <trkpt lat="45.23982" lon="5.5776">
        <ele>1539.6</ele>
        <time>2009-08-24T08:28:32Z</time>
      </trkpt>
      <trkpt lat="45.23995" lon="5.57752">
        <ele>1539.1</ele>
        <time>2009-08-24T08:28:41Z</time>
      </trkpt>
      <trkpt lat="45.24012" lon="5.57774">
        <ele>1538</ele>
        <time>2009-08-24T08:28:48Z</time>
      </trkpt>
      <trkpt lat="45.24026" lon="5.57781">
        <ele>1537.5</ele>
        <time>2009-08-24T08:28:50Z</time>
      </trkpt>
      <trkpt lat="45.24099" lon="5.57838">
        <ele>1531.8</ele>
        <time>2009-08-24T08:29:02Z</time>
      </trkpt>
      <trkpt lat="45.24139" lon="5.5789">
        <ele>1528.5</ele>
        <time>2009-08-24T08:29:09Z</time>
      </trkpt>
      <trkpt lat="45.24172" lon="5.57908">
        <ele>1524.3</ele>
        <time>2009-08-24T08:29:17Z</time>
      </trkpt>
      <trkpt lat="45.24178" lon="5.5792">
        <ele>1524.6</ele>
        <time>2009-08-24T08:29:20Z</time>
      </trkpt>
      <trkpt lat="45.24182" lon="5.57947">
        <ele>1527.9</ele>
        <time>2009-08-24T08:29:33Z</time>
      </trkpt>
      <trkpt lat="45.24174" lon="5.57976">
        <ele>1535.1</ele>
        <time>2009-08-24T08:29:45Z</time>
      </trkpt>
      <trkpt lat="45.24167" lon="5.58018">
        <ele>1543</ele>
        <time>2009-08-24T08:29:58Z</time>
      </trkpt>
      <trkpt lat="45.24163" lon="5.58028">
        <ele>1544.6</ele>
        <time>2009-08-24T08:30:01Z</time>
      </trkpt>
      <trkpt lat="45.24159" lon="5.58079">
        <ele>1551.8</ele>
        <time>2009-08-24T08:30:15Z</time>
      </trkpt>
      <trkpt lat="45.24137" lon="5.58125">
        <ele>1555.8</ele>
        <time>2009-08-24T08:30:22Z</time>
      </trkpt>
      <trkpt lat="45.24132" lon="5.58159">
        <ele>1559.1</ele>
        <time>2009-08-24T08:30:28Z</time>
      </trkpt>
      <trkpt lat="45.24118" lon="5.58197">
        <ele>1560.4</ele>
        <time>2009-08-24T08:30:34Z</time>
      </trkpt>
      <trkpt lat="45.24117" lon="5.58208">
        <ele>1561.1</ele>
        <time>2009-08-24T08:30:36Z</time>
      </trkpt>
      <trkpt lat="45.24122" lon="5.58262">
        <ele>1567.5</ele>
        <time>2009-08-24T08:30:49Z</time>
      </trkpt>
      <trkpt lat="45.24117" lon="5.5828">
        <ele>1567.8</ele>
        <time>2009-08-24T08:30:54Z</time>
      </trkpt>
      <trkpt lat="45.24115" lon="5.58312">
        <ele>1564.5</ele>
        <time>2009-08-24T08:30:58Z</time>
      </trkpt>
      <trkpt lat="45.24118" lon="5.58336">
        <ele>1562</ele>
        <time>2009-08-24T08:31:02Z</time>
      </trkpt>
      <trkpt lat="45.24135" lon="5.58377">
        <ele>1553.1</ele>
        <time>2009-08-24T08:31:09Z</time>
      </trkpt>
      <trkpt lat="45.24137" lon="5.58408">
        <ele>1551.6</ele>
        <time>2009-08-24T08:31:12Z</time>
      </trkpt>
      <trkpt lat="45.24134" lon="5.58453">
        <ele>1549.4</ele>
        <time>2009-08-24T08:31:16Z</time>
      </trkpt>
      <trkpt lat="45.2411" lon="5.58507">
        <ele>1547.6</ele>
        <time>2009-08-24T08:31:22Z</time>
      </trkpt>
      <trkpt lat="45.241" lon="5.58516">
        <ele>1546.5</ele>
        <time>2009-08-24T08:31:24Z</time>
      </trkpt>
      <trkpt lat="45.24073" lon="5.58522">
        <ele>1543.8</ele>
        <time>2009-08-24T08:31:28Z</time>
      </trkpt>
      <trkpt lat="45.24005" lon="5.58516">
        <ele>1539.5</ele>
        <time>2009-08-24T08:31:39Z</time>
      </trkpt>
      <trkpt lat="45.23975" lon="5.58528">
        <ele>1536.1</ele>
        <time>2009-08-24T08:31:45Z</time>
      </trkpt>
      <trkpt lat="45.23944" lon="5.58552">
        <ele>1533</ele>
        <time>2009-08-24T08:31:52Z</time>
      </trkpt>
      <trkpt lat="45.23936" lon="5.58564">
        <ele>1532.6</ele>
        <time>2009-08-24T08:31:55Z</time>
      </trkpt>
      <trkpt lat="45.23877" lon="5.58614">
        <ele>1528.4</ele>
        <time>2009-08-24T08:32:15Z</time>
      </trkpt>
      <trkpt lat="45.23838" lon="5.58624">
        <ele>1536.1</ele>
        <time>2009-08-24T08:32:24Z</time>
      </trkpt>
      <trkpt lat="45.23815" lon="5.58636">
        <ele>1543.8</ele>
        <time>2009-08-24T08:32:33Z</time>
      </trkpt>
      <trkpt lat="45.2378" lon="5.58671">
        <ele>1553.4</ele>
        <time>2009-08-24T08:32:52Z</time>
      </trkpt>
      <trkpt lat="45.23775" lon="5.58685">
        <ele>1556.4</ele>
        <time>2009-08-24T08:33:00Z</time>
      </trkpt>
      <trkpt lat="45.23758" lon="5.58707">
        <ele>1563</ele>
        <time>2009-08-24T08:33:17Z</time>
      </trkpt>
      <trkpt lat="45.23752" lon="5.58736">
        <ele>1566.4</ele>
        <time>2009-08-24T08:33:31Z</time>
      </trkpt>
      <trkpt lat="45.23756" lon="5.58764">
        <ele>1566.5</ele>
        <time>2009-08-24T08:33:45Z</time>
      </trkpt>
      <trkpt lat="45.23746" lon="5.58815">
        <ele>1574.3</ele>
        <time>2009-08-24T08:34:08Z</time>
      </trkpt>
      <trkpt lat="45.23756" lon="5.58872">
        <ele>1574.5</ele>
        <time>2009-08-24T08:34:31Z</time>
      </trkpt>
      <trkpt lat="45.23745" lon="5.58919">
        <ele>1577.5</ele>
        <time>2009-08-24T08:34:49Z</time>
      </trkpt>
      <trkpt lat="45.2374" lon="5.58928">
        <ele>1579.1</ele>
        <time>2009-08-24T08:34:54Z</time>
      </trkpt>
      <trkpt lat="45.23669" lon="5.58998">
        <ele>1585.3</ele>
        <time>2009-08-24T08:35:39Z</time>
      </trkpt>
      <trkpt lat="45.23632" lon="5.59029">
        <ele>1588.1</ele>
        <time>2009-08-24T08:36:06Z</time>
      </trkpt>
      <trkpt lat="45.23618" lon="5.59056">
        <ele>1589.9</ele>
        <time>2009-08-24T08:36:21Z</time>
      </trkpt>
      <trkpt lat="45.2361" lon="5.59066">
        <ele>1591.4</ele>
        <time>2009-08-24T08:36:26Z</time>
      </trkpt>
      <trkpt lat="45.23577" lon="5.59084">
        <ele>1591.9</ele>
        <time>2009-08-24T08:36:36Z</time>
      </trkpt>
      <trkpt lat="45.23559" lon="5.59104">
        <ele>1593.9</ele>
        <time>2009-08-24T08:36:47Z</time>
      </trkpt>
      <trkpt lat="45.23553" lon="5.59116">
        <ele>1595.5</ele>
        <time>2009-08-24T08:36:52Z</time>
      </trkpt>
      <trkpt lat="45.23555" lon="5.59124">
        <ele>1596.6</ele>
        <time>2009-08-24T08:36:56Z</time>
      </trkpt>
      <trkpt lat="45.23564" lon="5.59125">
        <ele>1599.4</ele>
        <time>2009-08-24T08:37:01Z</time>
      </trkpt>
      <trkpt lat="45.23577" lon="5.59115">
        <ele>1606</ele>
        <time>2009-08-24T08:37:14Z</time>
      </trkpt>
      <trkpt lat="45.23604" lon="5.59117">
        <ele>1611</ele>
        <time>2009-08-24T08:37:29Z</time>
      </trkpt>
      <trkpt lat="45.23613" lon="5.59126">
        <ele>1611.1</ele>
        <time>2009-08-24T08:37:36Z</time>
      </trkpt>
      <trkpt lat="45.2361" lon="5.59149">
        <ele>1611.1</ele>
        <time>2009-08-24T08:37:46Z</time>
      </trkpt>
      <trkpt lat="45.23589" lon="5.59159">
        <ele>1610.3</ele>
        <time>2009-08-24T08:38:01Z</time>
      </trkpt>
      <trkpt lat="45.23568" lon="5.59187">
        <ele>1611.5</ele>
        <time>2009-08-24T08:38:17Z</time>
      </trkpt>
      <trkpt lat="45.23548" lon="5.59199">
        <ele>1614.3</ele>
        <time>2009-08-24T08:38:29Z</time>
      </trkpt>
      <trkpt lat="45.23547" lon="5.59215">
        <ele>1615.9</ele>
        <time>2009-08-24T08:38:36Z</time>
      </trkpt>
      <trkpt lat="45.23562" lon="5.59216">
        <ele>1619.1</ele>
        <time>2009-08-24T08:38:45Z</time>
      </trkpt>
      <trkpt lat="45.23566" lon="5.5923">
        <ele>1621.4</ele>
        <time>2009-08-24T08:38:51Z</time>
      </trkpt>
      <trkpt lat="45.23562" lon="5.59246">
        <ele>1621.8</ele>
        <time>2009-08-24T08:38:58Z</time>
      </trkpt>
      <trkpt lat="45.23537" lon="5.59271">
        <ele>1624</ele>
        <time>2009-08-24T08:39:18Z</time>
      </trkpt>
      <trkpt lat="45.23504" lon="5.59268">
        <ele>1625.6</ele>
        <time>2009-08-24T08:39:35Z</time>
      </trkpt>
      <trkpt lat="45.23494" lon="5.59284">
        <ele>1624.5</ele>
        <time>2009-08-24T08:39:44Z</time>
      </trkpt>
      <trkpt lat="45.23485" lon="5.5929">
        <ele>1625.4</ele>
        <time>2009-08-24T08:39:49Z</time>
      </trkpt>
      <trkpt lat="45.23465" lon="5.59285">
        <ele>1624.8</ele>
        <time>2009-08-24T08:39:58Z</time>
      </trkpt>
      <trkpt lat="45.23435" lon="5.59286">
        <ele>1627.5</ele>
        <time>2009-08-24T08:40:08Z</time>
      </trkpt>
      <trkpt lat="45.23424" lon="5.59293">
        <ele>1627.1</ele>
        <time>2009-08-24T08:40:13Z</time>
      </trkpt>
      <trkpt lat="45.23411" lon="5.59324">
        <ele>1629.5</ele>
        <time>2009-08-24T08:40:25Z</time>
      </trkpt>
      <trkpt lat="45.23418" lon="5.59344">
        <ele>1627.3</ele>
        <time>2009-08-24T08:40:55Z</time>
      </trkpt>
      <trkpt lat="45.23423" lon="5.59343">
        <ele>1621.5</ele>
        <time>2009-08-24T08:41:59Z</time>
      </trkpt>
      <trkpt lat="45.23445" lon="5.5936">
        <ele>1613.1</ele>
        <time>2009-08-24T08:42:06Z</time>
      </trkpt>
      <trkpt lat="45.23459" lon="5.59364">
        <ele>1606.5</ele>
        <time>2009-08-24T08:42:13Z</time>
      </trkpt>
      <trkpt lat="45.23523" lon="5.59411">
        <ele>1597.4</ele>
        <time>2009-08-24T08:42:53Z</time>
      </trkpt>
      <trkpt lat="45.23557" lon="5.59473">
        <ele>1593.1</ele>
        <time>2009-08-24T08:48:17Z</time>
      </trkpt>
      <trkpt lat="45.2355" lon="5.59482">
        <ele>1594.8</ele>
        <time>2009-08-24T08:49:10Z</time>
      </trkpt>
      <trkpt lat="45.23503" lon="5.59495">
        <ele>1597.9</ele>
        <time>2009-08-24T08:49:45Z</time>
      </trkpt>
      <trkpt lat="45.23469" lon="5.59476">
        <ele>1597</ele>
        <time>2009-08-24T08:49:52Z</time>
      </trkpt>
      <trkpt lat="45.23456" lon="5.59474">
        <ele>1596.4</ele>
        <time>2009-08-24T08:49:55Z</time>
      </trkpt>
      <trkpt lat="45.23432" lon="5.59501">
        <ele>1603</ele>
        <time>2009-08-24T08:50:32Z</time>
      </trkpt>
      <trkpt lat="45.2341" lon="5.59533">
        <ele>1605.9</ele>
        <time>2009-08-24T08:50:51Z</time>
      </trkpt>
      <trkpt lat="45.23397" lon="5.5954">
        <ele>1606</ele>
        <time>2009-08-24T08:50:58Z</time>
      </trkpt>
      <trkpt lat="45.23365" lon="5.59536">
        <ele>1606.6</ele>
        <time>2009-08-24T08:51:14Z</time>
      </trkpt>
      <trkpt lat="45.2334" lon="5.59549">
        <ele>1611.5</ele>
        <time>2009-08-24T08:51:31Z</time>
      </trkpt>
      <trkpt lat="45.23282" lon="5.59506">
        <ele>1612.5</ele>
        <time>2009-08-24T08:51:56Z</time>
      </trkpt>
      <trkpt lat="45.23265" lon="5.59503">
        <ele>1613.6</ele>
        <time>2009-08-24T08:52:04Z</time>
      </trkpt>
      <trkpt lat="45.2325" lon="5.59521">
        <ele>1613.3</ele>
        <time>2009-08-24T08:52:14Z</time>
      </trkpt>
      <trkpt lat="45.23234" lon="5.59524">
        <ele>1612.8</ele>
        <time>2009-08-24T08:52:19Z</time>
      </trkpt>
      <trkpt lat="45.23225" lon="5.59531">
        <ele>1612.3</ele>
        <time>2009-08-24T08:52:21Z</time>
      </trkpt>
      <trkpt lat="45.23208" lon="5.59556">
        <ele>1611.5</ele>
        <time>2009-08-24T08:52:27Z</time>
      </trkpt>
      <trkpt lat="45.232" lon="5.59558">
        <ele>1611.6</ele>
        <time>2009-08-24T08:52:30Z</time>
      </trkpt>
      <trkpt lat="45.23196" lon="5.59547">
        <ele>1612</ele>
        <time>2009-08-24T08:52:35Z</time>
      </trkpt>
      <trkpt lat="45.23164" lon="5.59533">
        <ele>1612</ele>
        <time>2009-08-24T08:52:46Z</time>
      </trkpt>
      <trkpt lat="45.23154" lon="5.59524">
        <ele>1611.5</ele>
        <time>2009-08-24T08:52:49Z</time>
      </trkpt>
      <trkpt lat="45.23133" lon="5.59472">
        <ele>1610.5</ele>
        <time>2009-08-24T08:53:00Z</time>
      </trkpt>
      <trkpt lat="45.23107" lon="5.5943">
        <ele>1608</ele>
        <time>2009-08-24T08:53:08Z</time>
      </trkpt>
      <trkpt lat="45.23073" lon="5.59411">
        <ele>1607.3</ele>
        <time>2009-08-24T08:53:15Z</time>
      </trkpt>
      <trkpt lat="45.23045" lon="5.59409">
        <ele>1607.1</ele>
        <time>2009-08-24T08:53:22Z</time>
      </trkpt>
      <trkpt lat="45.23037" lon="5.59403">
        <ele>1607.9</ele>
        <time>2009-08-24T08:53:25Z</time>
      </trkpt>
      <trkpt lat="45.23024" lon="5.59385">
        <ele>1607.5</ele>
        <time>2009-08-24T08:53:31Z</time>
      </trkpt>
      <trkpt lat="45.23004" lon="5.5938">
        <ele>1608.8</ele>
        <time>2009-08-24T08:53:37Z</time>
      </trkpt>
      <trkpt lat="45.22992" lon="5.59362">
        <ele>1608.4</ele>
        <time>2009-08-24T08:53:42Z</time>
      </trkpt>
      <trkpt lat="45.22986" lon="5.59359">
        <ele>1608.5</ele>
        <time>2009-08-24T08:53:44Z</time>
      </trkpt>
      <trkpt lat="45.22967" lon="5.59363">
        <ele>1611.6</ele>
        <time>2009-08-24T08:53:51Z</time>
      </trkpt>
      <trkpt lat="45.22947" lon="5.59352">
        <ele>1611.4</ele>
        <time>2009-08-24T08:53:59Z</time>
      </trkpt>
      <trkpt lat="45.22939" lon="5.59353">
        <ele>1612</ele>
        <time>2009-08-24T08:54:01Z</time>
      </trkpt>
      <trkpt lat="45.22884" lon="5.59384">
        <ele>1612</ele>
        <time>2009-08-24T08:54:23Z</time>
      </trkpt>
      <trkpt lat="45.2285" lon="5.59384">
        <ele>1612</ele>
        <time>2009-08-24T08:54:34Z</time>
      </trkpt>
      <trkpt lat="45.22825" lon="5.59369">
        <ele>1611.6</ele>
        <time>2009-08-24T08:54:44Z</time>
      </trkpt>
      <trkpt lat="45.22792" lon="5.5937">
        <ele>1611.5</ele>
        <time>2009-08-24T08:54:56Z</time>
      </trkpt>
      <trkpt lat="45.22735" lon="5.59394">
        <ele>1607.6</ele>
        <time>2009-08-24T08:55:12Z</time>
      </trkpt>
      <trkpt lat="45.22724" lon="5.59403">
        <ele>1607.3</ele>
        <time>2009-08-24T08:55:16Z</time>
      </trkpt>
      <trkpt lat="45.22703" lon="5.59397">
        <ele>1606.6</ele>
        <time>2009-08-24T08:55:23Z</time>
      </trkpt>
      <trkpt lat="45.22694" lon="5.59386">
        <ele>1606.5</ele>
        <time>2009-08-24T08:55:27Z</time>
      </trkpt>
      <trkpt lat="45.22679" lon="5.59379">
        <ele>1606.8</ele>
        <time>2009-08-24T08:55:32Z</time>
      </trkpt>
      <trkpt lat="45.22669" lon="5.59381">
        <ele>1607</ele>
        <time>2009-08-24T08:55:36Z</time>
      </trkpt>
      <trkpt lat="45.22654" lon="5.59393">
        <ele>1605.9</ele>
        <time>2009-08-24T08:55:42Z</time>
      </trkpt>
      <trkpt lat="45.22574" lon="5.59385">
        <ele>1605.3</ele>
        <time>2009-08-24T08:56:01Z</time>
      </trkpt>
      <trkpt lat="45.22543" lon="5.59392">
        <ele>1605.5</ele>
        <time>2009-08-24T08:56:07Z</time>
      </trkpt>
      <trkpt lat="45.2249" lon="5.59382">
        <ele>1606.5</ele>
        <time>2009-08-24T08:56:19Z</time>
      </trkpt>
      <trkpt lat="45.22453" lon="5.59383">
        <ele>1607.8</ele>
        <time>2009-08-24T08:56:28Z</time>
      </trkpt>
      <trkpt lat="45.22392" lon="5.59367">
        <ele>1608.1</ele>
        <time>2009-08-24T08:56:42Z</time>
      </trkpt>
      <trkpt lat="45.22347" lon="5.59379">
        <ele>1608.9</ele>
        <time>2009-08-24T08:56:53Z</time>
      </trkpt>
      <trkpt lat="45.2229" lon="5.59354">
        <ele>1612.9</ele>
        <time>2009-08-24T08:57:13Z</time>
      </trkpt>
      <trkpt lat="45.22258" lon="5.59325">
        <ele>1613</ele>
        <time>2009-08-24T08:57:25Z</time>
      </trkpt>
      <trkpt lat="45.2223" lon="5.59282">
        <ele>1611.5</ele>
        <time>2009-08-24T08:57:35Z</time>
      </trkpt>
      <trkpt lat="45.22191" lon="5.59234">
        <ele>1607.5</ele>
        <time>2009-08-24T08:57:44Z</time>
      </trkpt>
      <trkpt lat="45.2217" lon="5.59225">
        <ele>1606.5</ele>
        <time>2009-08-24T08:57:47Z</time>
      </trkpt>
      <trkpt lat="45.2211" lon="5.59238">
        <ele>1602.6</ele>
        <time>2009-08-24T08:57:55Z</time>
      </trkpt>
      <trkpt lat="45.22086" lon="5.59238">
        <ele>1601.5</ele>
        <time>2009-08-24T08:57:58Z</time>
      </trkpt>
      <trkpt lat="45.22056" lon="5.59231">
        <ele>1600.3</ele>
        <time>2009-08-24T08:58:02Z</time>
      </trkpt>
      <trkpt lat="45.21964" lon="5.59253">
        <ele>1598.5</ele>
        <time>2009-08-24T08:58:14Z</time>
      </trkpt>
      <trkpt lat="45.21933" lon="5.59251">
        <ele>1596.5</ele>
        <time>2009-08-24T08:58:18Z</time>
      </trkpt>
      <trkpt lat="45.21903" lon="5.59262">
        <ele>1596.5</ele>
        <time>2009-08-24T08:58:22Z</time>
      </trkpt>
      <trkpt lat="45.21827" lon="5.59265">
        <ele>1594.5</ele>
        <time>2009-08-24T08:58:35Z</time>
      </trkpt>
      <trkpt lat="45.21813" lon="5.59272">
        <ele>1593.8</ele>
        <time>2009-08-24T08:58:38Z</time>
      </trkpt>
      <trkpt lat="45.21803" lon="5.59283">
        <ele>1592.4</ele>
        <time>2009-08-24T08:58:41Z</time>
      </trkpt>
      <trkpt lat="45.2178" lon="5.5935">
        <ele>1590.5</ele>
        <time>2009-08-24T08:58:49Z</time>
      </trkpt>
      <trkpt lat="45.21745" lon="5.59413">
        <ele>1585.4</ele>
        <time>2009-08-24T08:58:55Z</time>
      </trkpt>
      <trkpt lat="45.21733" lon="5.59427">
        <ele>1583.1</ele>
        <time>2009-08-24T08:58:57Z</time>
      </trkpt>
      <trkpt lat="45.21719" lon="5.59431">
        <ele>1582.1</ele>
        <time>2009-08-24T08:58:59Z</time>
      </trkpt>
      <trkpt lat="45.21665" lon="5.59398">
        <ele>1585.1</ele>
        <time>2009-08-24T08:59:39Z</time>
      </trkpt>
      <trkpt lat="45.21664" lon="5.59358">
        <ele>1587.6</ele>
        <time>2009-08-24T08:59:59Z</time>
      </trkpt>
      <trkpt lat="45.21655" lon="5.59345">
        <ele>1588.5</ele>
        <time>2009-08-24T09:00:05Z</time>
      </trkpt>
      <trkpt lat="45.21657" lon="5.59306">
        <ele>1590.6</ele>
        <time>2009-08-24T09:00:19Z</time>
      </trkpt>
      <trkpt lat="45.21654" lon="5.5929">
        <ele>1592.5</ele>
        <time>2009-08-24T09:00:25Z</time>
      </trkpt>
      <trkpt lat="45.21643" lon="5.5927">
        <ele>1595.3</ele>
        <time>2009-08-24T09:00:35Z</time>
      </trkpt>
      <trkpt lat="45.21634" lon="5.59232">
        <ele>1602</ele>
        <time>2009-08-24T09:00:49Z</time>
      </trkpt>
      <trkpt lat="45.21585" lon="5.59166">
        <ele>1608.8</ele>
        <time>2009-08-24T09:01:25Z</time>
      </trkpt>
      <trkpt lat="45.2156" lon="5.59159">
        <ele>1607.1</ele>
        <time>2009-08-24T09:01:36Z</time>
      </trkpt>
      <trkpt lat="45.21547" lon="5.59165">
        <ele>1609.5</ele>
        <time>2009-08-24T09:01:42Z</time>
      </trkpt>
      <trkpt lat="45.21514" lon="5.59156">
        <ele>1613</ele>
        <time>2009-08-24T09:02:03Z</time>
      </trkpt>
      <trkpt lat="45.21504" lon="5.59161">
        <ele>1615</ele>
        <time>2009-08-24T09:02:11Z</time>
      </trkpt>
      <trkpt lat="45.21506" lon="5.59165">
        <ele>1615.4</ele>
        <time>2009-08-24T09:02:14Z</time>
      </trkpt>
      <trkpt lat="45.21499" lon="5.59167">
        <ele>1615.5</ele>
        <time>2009-08-24T09:02:19Z</time>
      </trkpt>
      <trkpt lat="45.21445" lon="5.59125">
        <ele>1625.1</ele>
        <time>2009-08-24T09:02:51Z</time>
      </trkpt>
      <trkpt lat="45.21434" lon="5.59093">
        <ele>1624.9</ele>
        <time>2009-08-24T09:03:07Z</time>
      </trkpt>
      <trkpt lat="45.21423" lon="5.5908">
        <ele>1624.6</ele>
        <time>2009-08-24T09:03:17Z</time>
      </trkpt>
      <trkpt lat="45.21398" lon="5.5907">
        <ele>1625.1</ele>
        <time>2009-08-24T09:03:35Z</time>
      </trkpt>
      <trkpt lat="45.21318" lon="5.58996">
        <ele>1631</ele>
        <time>2009-08-24T09:04:45Z</time>
      </trkpt>
      <trkpt lat="45.21306" lon="5.58997">
        <ele>1631.8</ele>
        <time>2009-08-24T09:04:53Z</time>
      </trkpt>
      <trkpt lat="45.21218" lon="5.59033">
        <ele>1634</ele>
        <time>2009-08-24T09:05:44Z</time>
      </trkpt>
      <trkpt lat="45.2117" lon="5.59027">
        <ele>1634.1</ele>
        <time>2009-08-24T09:06:00Z</time>
      </trkpt>
      <trkpt lat="45.21138" lon="5.59012">
        <ele>1633.5</ele>
        <time>2009-08-24T09:06:12Z</time>
      </trkpt>
      <trkpt lat="45.21121" lon="5.58989">
        <ele>1633.1</ele>
        <time>2009-08-24T09:06:19Z</time>
      </trkpt>
      <trkpt lat="45.2111" lon="5.58957">
        <ele>1632.9</ele>
        <time>2009-08-24T09:06:28Z</time>
      </trkpt>
      <trkpt lat="45.21102" lon="5.58953">
        <ele>1632.3</ele>
        <time>2009-08-24T09:06:31Z</time>
      </trkpt>
      <trkpt lat="45.21088" lon="5.58965">
        <ele>1630.8</ele>
        <time>2009-08-24T09:07:45Z</time>
      </trkpt>
      <trkpt lat="45.21062" lon="5.59026">
        <ele>1627.6</ele>
        <time>2009-08-24T09:07:57Z</time>
      </trkpt>
      <trkpt lat="45.21047" lon="5.5905">
        <ele>1626.1</ele>
        <time>2009-08-24T09:08:03Z</time>
      </trkpt>
      <trkpt lat="45.2102" lon="5.59062">
        <ele>1625.4</ele>
        <time>2009-08-24T09:08:09Z</time>
      </trkpt>
      <trkpt lat="45.21003" lon="5.59093">
        <ele>1624.6</ele>
        <time>2009-08-24T09:08:14Z</time>
      </trkpt>
      <trkpt lat="45.20995" lon="5.59124">
        <ele>1624.6</ele>
        <time>2009-08-24T09:08:18Z</time>
      </trkpt>
      <trkpt lat="45.20996" lon="5.59169">
        <ele>1624.5</ele>
        <time>2009-08-24T09:08:24Z</time>
      </trkpt>
      <trkpt lat="45.20988" lon="5.5918">
        <ele>1624.4</ele>
        <time>2009-08-24T09:08:26Z</time>
      </trkpt>
      <trkpt lat="45.20943" lon="5.59184">
        <ele>1624.5</ele>
        <time>2009-08-24T09:08:33Z</time>
      </trkpt>
      <trkpt lat="45.2093" lon="5.59176">
        <ele>1625</ele>
        <time>2009-08-24T09:08:35Z</time>
      </trkpt>
      <trkpt lat="45.20885" lon="5.59124">
        <ele>1623.8</ele>
        <time>2009-08-24T09:08:43Z</time>
      </trkpt>
      <trkpt lat="45.20835" lon="5.59112">
        <ele>1621.9</ele>
        <time>2009-08-24T09:08:50Z</time>
      </trkpt>
      <trkpt lat="45.20815" lon="5.59114">
        <ele>1621.8</ele>
        <time>2009-08-24T09:08:53Z</time>
      </trkpt>
      <trkpt lat="45.20725" lon="5.59168">
        <ele>1617.8</ele>
        <time>2009-08-24T09:09:07Z</time>
      </trkpt>
      <trkpt lat="45.20696" lon="5.59221">
        <ele>1614.9</ele>
        <time>2009-08-24T09:09:13Z</time>
      </trkpt>
      <trkpt lat="45.20687" lon="5.59223">
        <ele>1614.9</ele>
        <time>2009-08-24T09:09:15Z</time>
      </trkpt>
      <trkpt lat="45.20636" lon="5.59213">
        <ele>1617.8</ele>
        <time>2009-08-24T09:09:32Z</time>
      </trkpt>
      <trkpt lat="45.20612" lon="5.59214">
        <ele>1618.6</ele>
        <time>2009-08-24T09:09:41Z</time>
      </trkpt>
      <trkpt lat="45.20464" lon="5.59314">
        <ele>1622.3</ele>
        <time>2009-08-24T09:10:20Z</time>
      </trkpt>
      <trkpt lat="45.20443" lon="5.59307">
        <ele>1626</ele>
        <time>2009-08-24T09:10:29Z</time>
      </trkpt>
      <trkpt lat="45.20404" lon="5.59308">
        <ele>1626.5</ele>
        <time>2009-08-24T09:10:49Z</time>
      </trkpt>
      <trkpt lat="45.20374" lon="5.59302">
        <ele>1627.9</ele>
        <time>2009-08-24T09:11:03Z</time>
      </trkpt>
      <trkpt lat="45.20323" lon="5.59282">
        <ele>1632.5</ele>
        <time>2009-08-24T09:11:26Z</time>
      </trkpt>
      <trkpt lat="45.2028" lon="5.59275">
        <ele>1632.9</ele>
        <time>2009-08-24T09:11:42Z</time>
      </trkpt>
      <trkpt lat="45.20195" lon="5.59242">
        <ele>1633.5</ele>
        <time>2009-08-24T09:12:08Z</time>
      </trkpt>
      <trkpt lat="45.20093" lon="5.5922">
        <ele>1634.9</ele>
        <time>2009-08-24T09:12:29Z</time>
      </trkpt>
      <trkpt lat="45.20072" lon="5.5922">
        <ele>1635</ele>
        <time>2009-08-24T09:12:33Z</time>
      </trkpt>
      <trkpt lat="45.19972" lon="5.5919">
        <ele>1636.1</ele>
        <time>2009-08-24T09:12:51Z</time>
      </trkpt>
      <trkpt lat="45.19868" lon="5.5918">
        <ele>1634.6</ele>
        <time>2009-08-24T09:13:09Z</time>
      </trkpt>
      <trkpt lat="45.19836" lon="5.59191">
        <ele>1635</ele>
        <time>2009-08-24T09:13:15Z</time>
      </trkpt>
      <trkpt lat="45.19783" lon="5.59174">
        <ele>1635</ele>
        <time>2009-08-24T09:14:13Z</time>
      </trkpt>
      <trkpt lat="45.1979" lon="5.59182">
        <ele>1633.5</ele>
        <time>2009-08-24T09:16:00Z</time>
      </trkpt>
      <trkpt lat="45.19791" lon="5.5919">
        <ele>1633.8</ele>
        <time>2009-08-24T09:16:04Z</time>
      </trkpt>
      <trkpt lat="45.19772" lon="5.59197">
        <ele>1634</ele>
        <time>2009-08-24T09:16:18Z</time>
      </trkpt>
      <trkpt lat="45.19728" lon="5.59187">
        <ele>1638.3</ele>
        <time>2009-08-24T09:16:46Z</time>
      </trkpt>
      <trkpt lat="45.19671" lon="5.59158">
        <ele>1647.1</ele>
        <time>2009-08-24T09:17:30Z</time>
      </trkpt>
      <trkpt lat="45.19653" lon="5.59158">
        <ele>1648.6</ele>
        <time>2009-08-24T09:17:41Z</time>
      </trkpt>
      <trkpt lat="45.19592" lon="5.59171">
        <ele>1649.3</ele>
        <time>2009-08-24T09:18:02Z</time>
      </trkpt>
      <trkpt lat="45.19565" lon="5.59187">
        <ele>1649.9</ele>
        <time>2009-08-24T09:18:11Z</time>
      </trkpt>
      <trkpt lat="45.19531" lon="5.59192">
        <ele>1650.9</ele>
        <time>2009-08-24T09:18:20Z</time>
      </trkpt>
      <trkpt lat="45.19444" lon="5.59223">
        <ele>1651.3</ele>
        <time>2009-08-24T09:18:42Z</time>
      </trkpt>
      <trkpt lat="45.19424" lon="5.59243">
        <ele>1652</ele>
        <time>2009-08-24T09:18:48Z</time>
      </trkpt>
      <trkpt lat="45.19369" lon="5.59249">
        <ele>1652.8</ele>
        <time>2009-08-24T09:19:03Z</time>
      </trkpt>
      <trkpt lat="45.19223" lon="5.59211">
        <ele>1646.9</ele>
        <time>2009-08-24T09:19:38Z</time>
      </trkpt>
      <trkpt lat="45.19211" lon="5.59205">
        <ele>1647.5</ele>
        <time>2009-08-24T09:19:43Z</time>
      </trkpt>
      <trkpt lat="45.19193" lon="5.59203">
        <ele>1648.3</ele>
        <time>2009-08-24T09:19:51Z</time>
      </trkpt>
      <trkpt lat="45.1917" lon="5.59192">
        <ele>1653.9</ele>
        <time>2009-08-24T09:20:04Z</time>
      </trkpt>
      <trkpt lat="45.19129" lon="5.59186">
        <ele>1662.5</ele>
        <time>2009-08-24T09:20:31Z</time>
      </trkpt>
      <trkpt lat="45.19101" lon="5.59165">
        <ele>1666.1</ele>
        <time>2009-08-24T09:20:57Z</time>
      </trkpt>
      <trkpt lat="45.19076" lon="5.59163">
        <ele>1669.4</ele>
        <time>2009-08-24T09:21:16Z</time>
      </trkpt>
      <trkpt lat="45.19033" lon="5.59139">
        <ele>1671.8</ele>
        <time>2009-08-24T09:21:55Z</time>
      </trkpt>
      <trkpt lat="45.19022" lon="5.59141">
        <ele>1672.1</ele>
        <time>2009-08-24T09:22:03Z</time>
      </trkpt>
      <trkpt lat="45.19013" lon="5.59137">
        <ele>1673.1</ele>
        <time>2009-08-24T09:22:09Z</time>
      </trkpt>
      <trkpt lat="45.18978" lon="5.5914">
        <ele>1675.6</ele>
        <time>2009-08-24T09:23:06Z</time>
      </trkpt>
      <trkpt lat="45.18972" lon="5.59135">
        <ele>1676.8</ele>
        <time>2009-08-24T09:24:46Z</time>
      </trkpt>
      <trkpt lat="45.18911" lon="5.59139">
        <ele>1685.3</ele>
        <time>2009-08-24T09:25:28Z</time>
      </trkpt>
      <trkpt lat="45.18902" lon="5.59145">
        <ele>1685.8</ele>
        <time>2009-08-24T09:25:35Z</time>
      </trkpt>
      <trkpt lat="45.18861" lon="5.5914">
        <ele>1689</ele>
        <time>2009-08-24T09:26:00Z</time>
      </trkpt>
      <trkpt lat="45.18854" lon="5.59135">
        <ele>1689.1</ele>
        <time>2009-08-24T09:26:05Z</time>
      </trkpt>
      <trkpt lat="45.18807" lon="5.59152">
        <ele>1694.8</ele>
        <time>2009-08-24T09:26:35Z</time>
      </trkpt>
      <trkpt lat="45.18786" lon="5.59181">
        <ele>1696</ele>
        <time>2009-08-24T09:26:50Z</time>
      </trkpt>
      <trkpt lat="45.1877" lon="5.5919">
        <ele>1695.9</ele>
        <time>2009-08-24T09:26:59Z</time>
      </trkpt>
      <trkpt lat="45.1875" lon="5.59195">
        <ele>1696.6</ele>
        <time>2009-08-24T09:27:09Z</time>
      </trkpt>
      <trkpt lat="45.18728" lon="5.59217">
        <ele>1697.5</ele>
        <time>2009-08-24T09:27:22Z</time>
      </trkpt>
      <trkpt lat="45.18721" lon="5.59216">
        <ele>1697.5</ele>
        <time>2009-08-24T09:27:25Z</time>
      </trkpt>
      <trkpt lat="45.1868" lon="5.59263">
        <ele>1698.5</ele>
        <time>2009-08-24T09:27:50Z</time>
      </trkpt>
      <trkpt lat="45.18657" lon="5.59255">
        <ele>1700.5</ele>
        <time>2009-08-24T09:28:03Z</time>
      </trkpt>
      <trkpt lat="45.18637" lon="5.5924">
        <ele>1703.3</ele>
        <time>2009-08-24T09:28:17Z</time>
      </trkpt>
      <trkpt lat="45.18589" lon="5.5917">
        <ele>1704.1</ele>
        <time>2009-08-24T09:29:09Z</time>
      </trkpt>
      <trkpt lat="45.18574" lon="5.59164">
        <ele>1703.4</ele>
        <time>2009-08-24T09:29:15Z</time>
      </trkpt>
      <trkpt lat="45.18563" lon="5.59147">
        <ele>1704.1</ele>
        <time>2009-08-24T09:29:20Z</time>
      </trkpt>
      <trkpt lat="45.18563" lon="5.59127">
        <ele>1704.5</ele>
        <time>2009-08-24T09:29:25Z</time>
      </trkpt>
      <trkpt lat="45.1856" lon="5.59119">
        <ele>1704.5</ele>
        <time>2009-08-24T09:29:27Z</time>
      </trkpt>
      <trkpt lat="45.18545" lon="5.59109">
        <ele>1704.5</ele>
        <time>2009-08-24T09:29:32Z</time>
      </trkpt>
      <trkpt lat="45.18499" lon="5.59048">
        <ele>1703.3</ele>
        <time>2009-08-24T09:29:46Z</time>
      </trkpt>
      <trkpt lat="45.18481" lon="5.59032">
        <ele>1702.5</ele>
        <time>2009-08-24T09:29:53Z</time>
      </trkpt>
      <trkpt lat="45.18474" lon="5.58999">
        <ele>1700.3</ele>
        <time>2009-08-24T09:30:01Z</time>
      </trkpt>
      <trkpt lat="45.18462" lon="5.58981">
        <ele>1697</ele>
        <time>2009-08-24T09:30:09Z</time>
      </trkpt>
      <trkpt lat="45.18448" lon="5.58974">
        <ele>1695.5</ele>
        <time>2009-08-24T09:31:03Z</time>
      </trkpt>
      <trkpt lat="45.18444" lon="5.58965">
        <ele>1694.4</ele>
        <time>2009-08-24T09:31:09Z</time>
      </trkpt>
      <trkpt lat="45.18389" lon="5.58905">
        <ele>1692.3</ele>
        <time>2009-08-24T09:31:24Z</time>
      </trkpt>
      <trkpt lat="45.18357" lon="5.5885">
        <ele>1690.8</ele>
        <time>2009-08-24T09:31:35Z</time>
      </trkpt>
      <trkpt lat="45.18317" lon="5.58807">
        <ele>1688</ele>
        <time>2009-08-24T09:31:43Z</time>
      </trkpt>
      <trkpt lat="45.18304" lon="5.58801">
        <ele>1686</ele>
        <time>2009-08-24T09:38:50Z</time>
      </trkpt>
      <trkpt lat="45.18307" lon="5.58809">
        <ele>1677.6</ele>
        <time>2009-08-24T10:04:08Z</time>
      </trkpt>
      <trkpt lat="45.18304" lon="5.58811">
        <ele>1677.5</ele>
        <time>2009-08-24T10:04:33Z</time>
      </trkpt>
      <trkpt lat="45.18259" lon="5.58792">
        <ele>1664.4</ele>
        <time>2009-08-24T10:04:46Z</time>
      </trkpt>
      <trkpt lat="45.18252" lon="5.58785">
        <ele>1664.1</ele>
        <time>2009-08-24T10:04:49Z</time>
      </trkpt>
      <trkpt lat="45.18246" lon="5.58768">
        <ele>1664.1</ele>
        <time>2009-08-24T10:04:53Z</time>
      </trkpt>
      <trkpt lat="45.18233" lon="5.58756">
        <ele>1662.3</ele>
        <time>2009-08-24T10:04:56Z</time>
      </trkpt>
      <trkpt lat="45.18187" lon="5.58732">
        <ele>1661.5</ele>
        <time>2009-08-24T10:05:03Z</time>
      </trkpt>
      <trkpt lat="45.18138" lon="5.58697">
        <ele>1661.8</ele>
        <time>2009-08-24T10:05:12Z</time>
      </trkpt>
      <trkpt lat="45.1811" lon="5.58684">
        <ele>1661.4</ele>
        <time>2009-08-24T10:05:18Z</time>
      </trkpt>
      <trkpt lat="45.17975" lon="5.58596">
        <ele>1655</ele>
        <time>2009-08-24T10:05:45Z</time>
      </trkpt>
      <trkpt lat="45.17943" lon="5.58592">
        <ele>1655.4</ele>
        <time>2009-08-24T10:05:53Z</time>
      </trkpt>
      <trkpt lat="45.17896" lon="5.58575">
        <ele>1654.5</ele>
        <time>2009-08-24T10:06:15Z</time>
      </trkpt>
      <trkpt lat="45.17881" lon="5.58578">
        <ele>1656.5</ele>
        <time>2009-08-24T10:06:22Z</time>
      </trkpt>
      <trkpt lat="45.17864" lon="5.58573">
        <ele>1657.3</ele>
        <time>2009-08-24T10:06:29Z</time>
      </trkpt>
      <trkpt lat="45.17837" lon="5.58609">
        <ele>1661.3</ele>
        <time>2009-08-24T10:06:46Z</time>
      </trkpt>
      <trkpt lat="45.17802" lon="5.58621">
        <ele>1666</ele>
        <time>2009-08-24T10:07:10Z</time>
      </trkpt>
      <trkpt lat="45.17774" lon="5.58644">
        <ele>1668</ele>
        <time>2009-08-24T10:07:32Z</time>
      </trkpt>
      <trkpt lat="45.17738" lon="5.58644">
        <ele>1671.1</ele>
        <time>2009-08-24T10:07:52Z</time>
      </trkpt>
      <trkpt lat="45.17707" lon="5.58655">
        <ele>1673.5</ele>
        <time>2009-08-24T10:08:08Z</time>
      </trkpt>
      <trkpt lat="45.17689" lon="5.58656">
        <ele>1672.9</ele>
        <time>2009-08-24T10:08:16Z</time>
      </trkpt>
      <trkpt lat="45.17636" lon="5.58639">
        <ele>1682.5</ele>
        <time>2009-08-24T10:08:53Z</time>
      </trkpt>
      <trkpt lat="45.17591" lon="5.58603">
        <ele>1683.9</ele>
        <time>2009-08-24T10:09:26Z</time>
      </trkpt>
      <trkpt lat="45.17527" lon="5.58579">
        <ele>1689.1</ele>
        <time>2009-08-24T10:09:50Z</time>
      </trkpt>
      <trkpt lat="45.175" lon="5.58551">
        <ele>1688</ele>
        <time>2009-08-24T10:10:00Z</time>
      </trkpt>
      <trkpt lat="45.17465" lon="5.58553">
        <ele>1688.5</ele>
        <time>2009-08-24T10:10:09Z</time>
      </trkpt>
      <trkpt lat="45.17446" lon="5.58549">
        <ele>1689.4</ele>
        <time>2009-08-24T10:10:14Z</time>
      </trkpt>
      <trkpt lat="45.17419" lon="5.58532">
        <ele>1689.5</ele>
        <time>2009-08-24T10:10:20Z</time>
      </trkpt>
      <trkpt lat="45.1741" lon="5.58518">
        <ele>1688.5</ele>
        <time>2009-08-24T10:10:23Z</time>
      </trkpt>
      <trkpt lat="45.1736" lon="5.58477">
        <ele>1678.1</ele>
        <time>2009-08-24T10:10:34Z</time>
      </trkpt>
      <trkpt lat="45.17349" lon="5.58472">
        <ele>1676.5</ele>
        <time>2009-08-24T10:10:37Z</time>
      </trkpt>
      <trkpt lat="45.17341" lon="5.58475">
        <ele>1675.5</ele>
        <time>2009-08-24T10:10:42Z</time>
      </trkpt>
      <trkpt lat="45.17331" lon="5.58471">
        <ele>1673.8</ele>
        <time>2009-08-24T10:10:46Z</time>
      </trkpt>
      <trkpt lat="45.17327" lon="5.58463">
        <ele>1672</ele>
        <time>2009-08-24T10:10:49Z</time>
      </trkpt>
      <trkpt lat="45.17316" lon="5.58458">
        <ele>1671.8</ele>
        <time>2009-08-24T10:10:54Z</time>
      </trkpt>
      <trkpt lat="45.17286" lon="5.58405">
        <ele>1666.5</ele>
        <time>2009-08-24T10:11:07Z</time>
      </trkpt>
      <trkpt lat="45.1725" lon="5.58401">
        <ele>1665.4</ele>
        <time>2009-08-24T10:11:14Z</time>
      </trkpt>
      <trkpt lat="45.17229" lon="5.5839">
        <ele>1661.9</ele>
        <time>2009-08-24T10:11:18Z</time>
      </trkpt>
      <trkpt lat="45.17198" lon="5.58393">
        <ele>1656.5</ele>
        <time>2009-08-24T10:11:24Z</time>
      </trkpt>
      <trkpt lat="45.17189" lon="5.58399">
        <ele>1654.5</ele>
        <time>2009-08-24T10:11:28Z</time>
      </trkpt>
      <trkpt lat="45.17166" lon="5.58399">
        <ele>1651.8</ele>
        <time>2009-08-24T10:11:53Z</time>
      </trkpt>
      <trkpt lat="45.17147" lon="5.58386">
        <ele>1647.8</ele>
        <time>2009-08-24T10:12:00Z</time>
      </trkpt>
      <trkpt lat="45.17089" lon="5.58365">
        <ele>1642.9</ele>
        <time>2009-08-24T10:12:19Z</time>
      </trkpt>
      <trkpt lat="45.17039" lon="5.58354">
        <ele>1649.4</ele>
        <time>2009-08-24T10:13:27Z</time>
      </trkpt>
      <trkpt lat="45.17023" lon="5.58358">
        <ele>1651</ele>
        <time>2009-08-24T10:14:22Z</time>
      </trkpt>
      <trkpt lat="45.16995" lon="5.58375">
        <ele>1657.4</ele>
        <time>2009-08-24T10:14:51Z</time>
      </trkpt>
      <trkpt lat="45.16997" lon="5.58392">
        <ele>1659.5</ele>
        <time>2009-08-24T10:17:40Z</time>
      </trkpt>
      <trkpt lat="45.16985" lon="5.58379">
        <ele>1660</ele>
        <time>2009-08-24T10:18:49Z</time>
      </trkpt>
      <trkpt lat="45.16829" lon="5.58333">
        <ele>1656.5</ele>
        <time>2009-08-24T10:19:24Z</time>
      </trkpt>
      <trkpt lat="45.16799" lon="5.58336">
        <ele>1655.8</ele>
        <time>2009-08-24T10:19:30Z</time>
      </trkpt>
      <trkpt lat="45.1675" lon="5.58315">
        <ele>1653.5</ele>
        <time>2009-08-24T10:19:38Z</time>
      </trkpt>
      <trkpt lat="45.16716" lon="5.58316">
        <ele>1653.5</ele>
        <time>2009-08-24T10:19:47Z</time>
      </trkpt>
      <trkpt lat="45.16665" lon="5.58303">
        <ele>1655.1</ele>
        <time>2009-08-24T10:20:11Z</time>
      </trkpt>
      <trkpt lat="45.16654" lon="5.58297">
        <ele>1657.1</ele>
        <time>2009-08-24T10:20:20Z</time>
      </trkpt>
      <trkpt lat="45.16637" lon="5.58297">
        <ele>1659</ele>
        <time>2009-08-24T10:20:33Z</time>
      </trkpt>
      <trkpt lat="45.16569" lon="5.58277">
        <ele>1657.6</ele>
        <time>2009-08-24T10:21:04Z</time>
      </trkpt>
      <trkpt lat="45.16447" lon="5.58221">
        <ele>1654.5</ele>
        <time>2009-08-24T10:21:30Z</time>
      </trkpt>
      <trkpt lat="45.16382" lon="5.58142">
        <ele>1651</ele>
        <time>2009-08-24T10:21:50Z</time>
      </trkpt>
      <trkpt lat="45.16375" lon="5.58115">
        <ele>1650.5</ele>
        <time>2009-08-24T10:22:09Z</time>
      </trkpt>
      <trkpt lat="45.1635" lon="5.58093">
        <ele>1652.9</ele>
        <time>2009-08-24T10:22:28Z</time>
      </trkpt>
      <trkpt lat="45.16307" lon="5.58076">
        <ele>1654</ele>
        <time>2009-08-24T10:22:43Z</time>
      </trkpt>
      <trkpt lat="45.16277" lon="5.58075">
        <ele>1653.8</ele>
        <time>2009-08-24T10:22:50Z</time>
      </trkpt>
      <trkpt lat="45.16175" lon="5.5805">
        <ele>1653.3</ele>
        <time>2009-08-24T10:23:11Z</time>
      </trkpt>
      <trkpt lat="45.1616" lon="5.58038">
        <ele>1653</ele>
        <time>2009-08-24T10:23:15Z</time>
      </trkpt>
      <trkpt lat="45.16137" lon="5.58039">
        <ele>1651.1</ele>
        <time>2009-08-24T10:23:20Z</time>
      </trkpt>
      <trkpt lat="45.16087" lon="5.5805">
        <ele>1649.9</ele>
        <time>2009-08-24T10:23:28Z</time>
      </trkpt>
      <trkpt lat="45.15994" lon="5.58026">
        <ele>1645.8</ele>
        <time>2009-08-24T10:23:40Z</time>
      </trkpt>
      <trkpt lat="45.15922" lon="5.57987">
        <ele>1644.6</ele>
        <time>2009-08-24T10:23:55Z</time>
      </trkpt>
      <trkpt lat="45.15894" lon="5.57944">
        <ele>1642.5</ele>
        <time>2009-08-24T10:24:01Z</time>
      </trkpt>
      <trkpt lat="45.15856" lon="5.57913">
        <ele>1641</ele>
        <time>2009-08-24T10:24:07Z</time>
      </trkpt>
      <trkpt lat="45.15841" lon="5.57908">
        <ele>1640.4</ele>
        <time>2009-08-24T10:24:10Z</time>
      </trkpt>
      <trkpt lat="45.15837" lon="5.57902">
        <ele>1639.8</ele>
        <time>2009-08-24T10:24:12Z</time>
      </trkpt>
      <trkpt lat="45.15813" lon="5.57895">
        <ele>1638.5</ele>
        <time>2009-08-24T10:24:20Z</time>
      </trkpt>
      <trkpt lat="45.15759" lon="5.57865">
        <ele>1633.4</ele>
        <time>2009-08-24T10:24:33Z</time>
      </trkpt>
      <trkpt lat="45.15726" lon="5.57853">
        <ele>1632</ele>
        <time>2009-08-24T10:24:37Z</time>
      </trkpt>
      <trkpt lat="45.15689" lon="5.57854">
        <ele>1630.1</ele>
        <time>2009-08-24T10:24:41Z</time>
      </trkpt>
      <trkpt lat="45.15659" lon="5.57862">
        <ele>1627</ele>
        <time>2009-08-24T10:24:47Z</time>
      </trkpt>
      <trkpt lat="45.15653" lon="5.5787">
        <ele>1624.9</ele>
        <time>2009-08-24T10:24:53Z</time>
      </trkpt>
      <trkpt lat="45.15595" lon="5.57883">
        <ele>1622.5</ele>
        <time>2009-08-24T10:25:09Z</time>
      </trkpt>
      <trkpt lat="45.15552" lon="5.57857">
        <ele>1621.5</ele>
        <time>2009-08-24T10:25:17Z</time>
      </trkpt>
      <trkpt lat="45.15533" lon="5.57832">
        <ele>1620.4</ele>
        <time>2009-08-24T10:25:22Z</time>
      </trkpt>
      <trkpt lat="45.15479" lon="5.57784">
        <ele>1622.5</ele>
        <time>2009-08-24T10:25:38Z</time>
      </trkpt>
      <trkpt lat="45.15461" lon="5.57779">
        <ele>1620.4</ele>
        <time>2009-08-24T10:25:43Z</time>
      </trkpt>
      <trkpt lat="45.154" lon="5.57794">
        <ele>1616.5</ele>
        <time>2009-08-24T10:25:58Z</time>
      </trkpt>
      <trkpt lat="45.15347" lon="5.57786">
        <ele>1611.9</ele>
        <time>2009-08-24T10:26:07Z</time>
      </trkpt>
      <trkpt lat="45.15292" lon="5.57761">
        <ele>1607.8</ele>
        <time>2009-08-24T10:26:15Z</time>
      </trkpt>
      <trkpt lat="45.15269" lon="5.5776">
        <ele>1606.1</ele>
        <time>2009-08-24T10:26:20Z</time>
      </trkpt>
      <trkpt lat="45.15255" lon="5.57746">
        <ele>1604.5</ele>
        <time>2009-08-24T10:26:26Z</time>
      </trkpt>
      <trkpt lat="45.15243" lon="5.57748">
        <ele>1602.5</ele>
        <time>2009-08-24T10:26:30Z</time>
      </trkpt>
      <trkpt lat="45.15187" lon="5.57725">
        <ele>1599</ele>
        <time>2009-08-24T10:26:39Z</time>
      </trkpt>
      <trkpt lat="45.15099" lon="5.57676">
        <ele>1588.1</ele>
        <time>2009-08-24T10:26:55Z</time>
      </trkpt>
      <trkpt lat="45.15074" lon="5.57676">
        <ele>1583.8</ele>
        <time>2009-08-24T10:26:59Z</time>
      </trkpt>
      <trkpt lat="45.15044" lon="5.57685">
        <ele>1578.8</ele>
        <time>2009-08-24T10:27:05Z</time>
      </trkpt>
      <trkpt lat="45.15013" lon="5.57683">
        <ele>1574</ele>
        <time>2009-08-24T10:27:12Z</time>
      </trkpt>
      <trkpt lat="45.14993" lon="5.57691">
        <ele>1572</ele>
        <time>2009-08-24T10:27:16Z</time>
      </trkpt>
      <trkpt lat="45.14964" lon="5.57689">
        <ele>1570.5</ele>
        <time>2009-08-24T10:27:21Z</time>
      </trkpt>
      <trkpt lat="45.14939" lon="5.57668">
        <ele>1569</ele>
        <time>2009-08-24T10:27:26Z</time>
      </trkpt>
      <trkpt lat="45.14881" lon="5.57649">
        <ele>1565.5</ele>
        <time>2009-08-24T10:27:38Z</time>
      </trkpt>
      <trkpt lat="45.14853" lon="5.57629">
        <ele>1564</ele>
        <time>2009-08-24T10:27:43Z</time>
      </trkpt>
      <trkpt lat="45.1483" lon="5.57586">
        <ele>1552.9</ele>
        <time>2009-08-24T10:27:49Z</time>
      </trkpt>
      <trkpt lat="45.1482" lon="5.57581">
        <ele>1551</ele>
        <time>2009-08-24T10:27:51Z</time>
      </trkpt>
      <trkpt lat="45.14794" lon="5.5758">
        <ele>1548.6</ele>
        <time>2009-08-24T10:27:55Z</time>
      </trkpt>
      <trkpt lat="45.14716" lon="5.57565">
        <ele>1542.1</ele>
        <time>2009-08-24T10:28:04Z</time>
      </trkpt>
      <trkpt lat="45.14661" lon="5.57565">
        <ele>1541</ele>
        <time>2009-08-24T10:28:10Z</time>
      </trkpt>
      <trkpt lat="45.14646" lon="5.57559">
        <ele>1540</ele>
        <time>2009-08-24T10:28:13Z</time>
      </trkpt>
      <trkpt lat="45.1457" lon="5.5756">
        <ele>1529</ele>
        <time>2009-08-24T10:28:23Z</time>
      </trkpt>
      <trkpt lat="45.14549" lon="5.57535">
        <ele>1526.5</ele>
        <time>2009-08-24T10:28:27Z</time>
      </trkpt>
      <trkpt lat="45.14534" lon="5.5753">
        <ele>1524.4</ele>
        <time>2009-08-24T10:28:30Z</time>
      </trkpt>
      <trkpt lat="45.14486" lon="5.57527">
        <ele>1517.6</ele>
        <time>2009-08-24T10:28:38Z</time>
      </trkpt>
      <trkpt lat="45.14418" lon="5.57529">
        <ele>1513.8</ele>
        <time>2009-08-24T10:28:47Z</time>
      </trkpt>
      <trkpt lat="45.1437" lon="5.57551">
        <ele>1509.6</ele>
        <time>2009-08-24T10:28:54Z</time>
      </trkpt>
      <trkpt lat="45.14359" lon="5.57545">
        <ele>1506.1</ele>
        <time>2009-08-24T10:28:58Z</time>
      </trkpt>
      <trkpt lat="45.14356" lon="5.57549">
        <ele>1504</ele>
        <time>2009-08-24T10:29:00Z</time>
      </trkpt>
      <trkpt lat="45.1434" lon="5.5755">
        <ele>1502</ele>
        <time>2009-08-24T10:29:04Z</time>
      </trkpt>
      <trkpt lat="45.14319" lon="5.57561">
        <ele>1500.3</ele>
        <time>2009-08-24T10:29:09Z</time>
      </trkpt>
      <trkpt lat="45.14278" lon="5.57555">
        <ele>1498.1</ele>
        <time>2009-08-24T10:29:17Z</time>
      </trkpt>
      <trkpt lat="45.1425" lon="5.57543">
        <ele>1495.5</ele>
        <time>2009-08-24T10:29:26Z</time>
      </trkpt>
      <trkpt lat="45.14208" lon="5.57513">
        <ele>1492.5</ele>
        <time>2009-08-24T10:29:39Z</time>
      </trkpt>
      <trkpt lat="45.14203" lon="5.57505">
        <ele>1491.8</ele>
        <time>2009-08-24T10:29:41Z</time>
      </trkpt>
      <trkpt lat="45.14173" lon="5.5749">
        <ele>1488.5</ele>
        <time>2009-08-24T10:29:53Z</time>
      </trkpt>
      <trkpt lat="45.14134" lon="5.57489">
        <ele>1486.1</ele>
        <time>2009-08-24T10:30:02Z</time>
      </trkpt>
      <trkpt lat="45.14097" lon="5.5748">
        <ele>1488.4</ele>
        <time>2009-08-24T10:30:11Z</time>
      </trkpt>
      <trkpt lat="45.14075" lon="5.57464">
        <ele>1485.9</ele>
        <time>2009-08-24T10:30:21Z</time>
      </trkpt>
      <trkpt lat="45.14036" lon="5.57462">
        <ele>1481.6</ele>
        <time>2009-08-24T10:30:34Z</time>
      </trkpt>
      <trkpt lat="45.14031" lon="5.5745">
        <ele>1478.5</ele>
        <time>2009-08-24T10:30:37Z</time>
      </trkpt>
      <trkpt lat="45.1402" lon="5.57438">
        <ele>1476.9</ele>
        <time>2009-08-24T10:30:41Z</time>
      </trkpt>
      <trkpt lat="45.13958" lon="5.5743">
        <ele>1470</ele>
        <time>2009-08-24T10:30:59Z</time>
      </trkpt>
      <trkpt lat="45.13948" lon="5.57435">
        <ele>1468.5</ele>
        <time>2009-08-24T10:31:03Z</time>
      </trkpt>
      <trkpt lat="45.13941" lon="5.5743">
        <ele>1467.9</ele>
        <time>2009-08-24T10:31:06Z</time>
      </trkpt>
      <trkpt lat="45.1392" lon="5.57434">
        <ele>1463.5</ele>
        <time>2009-08-24T10:31:15Z</time>
      </trkpt>
      <trkpt lat="45.1385" lon="5.57408">
        <ele>1450.5</ele>
        <time>2009-08-24T10:31:36Z</time>
      </trkpt>
      <trkpt lat="45.13815" lon="5.57411">
        <ele>1444.6</ele>
        <time>2009-08-24T10:31:44Z</time>
      </trkpt>
      <trkpt lat="45.13787" lon="5.57429">
        <ele>1440.9</ele>
        <time>2009-08-24T10:31:50Z</time>
      </trkpt>
      <trkpt lat="45.13753" lon="5.57424">
        <ele>1437.4</ele>
        <time>2009-08-24T10:31:57Z</time>
      </trkpt>
      <trkpt lat="45.13739" lon="5.57415">
        <ele>1431.9</ele>
        <time>2009-08-24T10:33:49Z</time>
      </trkpt>
      <trkpt lat="45.13744" lon="5.57389">
        <ele>1431.6</ele>
        <time>2009-08-24T10:34:36Z</time>
      </trkpt>
      <trkpt lat="45.13738" lon="5.57361">
        <ele>1432</ele>
        <time>2009-08-24T10:34:42Z</time>
      </trkpt>
      <trkpt lat="45.13717" lon="5.57338">
        <ele>1431.9</ele>
        <time>2009-08-24T10:34:47Z</time>
      </trkpt>
      <trkpt lat="45.13651" lon="5.57244">
        <ele>1429.5</ele>
        <time>2009-08-24T10:35:04Z</time>
      </trkpt>
      <trkpt lat="45.1354" lon="5.57142">
        <ele>1422</ele>
        <time>2009-08-24T10:35:27Z</time>
      </trkpt>
      <trkpt lat="45.13518" lon="5.57133">
        <ele>1418.8</ele>
        <time>2009-08-24T10:35:32Z</time>
      </trkpt>
      <trkpt lat="45.13495" lon="5.57111">
        <ele>1416.4</ele>
        <time>2009-08-24T10:35:38Z</time>
      </trkpt>
      <trkpt lat="45.13481" lon="5.57108">
        <ele>1414.4</ele>
        <time>2009-08-24T10:35:42Z</time>
      </trkpt>
      <trkpt lat="45.13462" lon="5.57088">
        <ele>1410.5</ele>
        <time>2009-08-24T10:35:48Z</time>
      </trkpt>
      <trkpt lat="45.13428" lon="5.57071">
        <ele>1403.4</ele>
        <time>2009-08-24T10:35:57Z</time>
      </trkpt>
      <trkpt lat="45.13394" lon="5.5704">
        <ele>1400.6</ele>
        <time>2009-08-24T10:36:05Z</time>
      </trkpt>
      <trkpt lat="45.13371" lon="5.56982">
        <ele>1383.3</ele>
        <time>2009-08-24T10:48:30Z</time>
      </trkpt>
      <trkpt lat="45.1333" lon="5.56919">
        <ele>1376</ele>
        <time>2009-08-24T10:50:44Z</time>
      </trkpt>
      <trkpt lat="45.13296" lon="5.56847">
        <ele>1368.5</ele>
        <time>2009-08-24T10:51:03Z</time>
      </trkpt>
      <trkpt lat="45.13283" lon="5.56785">
        <ele>1362.6</ele>
        <time>2009-08-24T10:51:12Z</time>
      </trkpt>
      <trkpt lat="45.13272" lon="5.5676">
        <ele>1360.6</ele>
        <time>2009-08-24T10:51:16Z</time>
      </trkpt>
      <trkpt lat="45.13247" lon="5.56721">
        <ele>1357</ele>
        <time>2009-08-24T10:51:22Z</time>
      </trkpt>
      <trkpt lat="45.13242" lon="5.56707">
        <ele>1355.8</ele>
        <time>2009-08-24T10:51:24Z</time>
      </trkpt>
      <trkpt lat="45.13217" lon="5.5667">
        <ele>1351</ele>
        <time>2009-08-24T10:51:31Z</time>
      </trkpt>
      <trkpt lat="45.13207" lon="5.56663">
        <ele>1349.3</ele>
        <time>2009-08-24T10:51:33Z</time>
      </trkpt>
      <trkpt lat="45.13123" lon="5.56635">
        <ele>1339.3</ele>
        <time>2009-08-24T10:51:45Z</time>
      </trkpt>
      <trkpt lat="45.13088" lon="5.56633">
        <ele>1337.3</ele>
        <time>2009-08-24T10:51:51Z</time>
      </trkpt>
      <trkpt lat="45.13031" lon="5.56586">
        <ele>1321</ele>
        <time>2009-08-24T10:52:09Z</time>
      </trkpt>
      <trkpt lat="45.13026" lon="5.56578">
        <ele>1319.5</ele>
        <time>2009-08-24T10:52:11Z</time>
      </trkpt>
      <trkpt lat="45.13019" lon="5.5654">
        <ele>1316</ele>
        <time>2009-08-24T10:52:16Z</time>
      </trkpt>
      <trkpt lat="45.13018" lon="5.56516">
        <ele>1312.8</ele>
        <time>2009-08-24T10:52:19Z</time>
      </trkpt>
      <trkpt lat="45.13012" lon="5.56489">
        <ele>1308.4</ele>
        <time>2009-08-24T10:52:22Z</time>
      </trkpt>
      <trkpt lat="45.12992" lon="5.56447">
        <ele>1297</ele>
        <time>2009-08-24T10:52:29Z</time>
      </trkpt>
      <trkpt lat="45.12997" lon="5.56399">
        <ele>1291</ele>
        <time>2009-08-24T10:52:36Z</time>
      </trkpt>
      <trkpt lat="45.12996" lon="5.56363">
        <ele>1285.8</ele>
        <time>2009-08-24T10:52:41Z</time>
      </trkpt>
      <trkpt lat="45.12988" lon="5.56322">
        <ele>1280.9</ele>
        <time>2009-08-24T10:52:47Z</time>
      </trkpt>
      <trkpt lat="45.12991" lon="5.56284">
        <ele>1275.3</ele>
        <time>2009-08-24T10:52:53Z</time>
      </trkpt>
      <trkpt lat="45.13006" lon="5.56258">
        <ele>1267.5</ele>
        <time>2009-08-24T10:52:59Z</time>
      </trkpt>
      <trkpt lat="45.13012" lon="5.56228">
        <ele>1259.5</ele>
        <time>2009-08-24T10:53:06Z</time>
      </trkpt>
      <trkpt lat="45.13019" lon="5.56158">
        <ele>1247.8</ele>
        <time>2009-08-24T10:53:21Z</time>
      </trkpt>
      <trkpt lat="45.13016" lon="5.56124">
        <ele>1244.5</ele>
        <time>2009-08-24T10:53:27Z</time>
      </trkpt>
      <trkpt lat="45.13029" lon="5.56078">
        <ele>1240.6</ele>
        <time>2009-08-24T10:53:33Z</time>
      </trkpt>
      <trkpt lat="45.13031" lon="5.5606">
        <ele>1238</ele>
        <time>2009-08-24T10:53:35Z</time>
      </trkpt>
      <trkpt lat="45.13026" lon="5.56013">
        <ele>1233</ele>
        <time>2009-08-24T10:53:41Z</time>
      </trkpt>
      <trkpt lat="45.1304" lon="5.55975">
        <ele>1227.6</ele>
        <time>2009-08-24T10:53:51Z</time>
      </trkpt>
      <trkpt lat="45.13038" lon="5.5597">
        <ele>1227</ele>
        <time>2009-08-24T10:53:53Z</time>
      </trkpt>
      <trkpt lat="45.13017" lon="5.55972">
        <ele>1224.8</ele>
        <time>2009-08-24T10:54:00Z</time>
      </trkpt>
      <trkpt lat="45.13006" lon="5.55954">
        <ele>1222.9</ele>
        <time>2009-08-24T10:54:06Z</time>
      </trkpt>
      <trkpt lat="45.1299" lon="5.55946">
        <ele>1220.4</ele>
        <time>2009-08-24T10:54:13Z</time>
      </trkpt>
      <trkpt lat="45.12984" lon="5.55924">
        <ele>1221.3</ele>
        <time>2009-08-24T10:54:19Z</time>
      </trkpt>
      <trkpt lat="45.12911" lon="5.55882">
        <ele>1214.1</ele>
        <time>2009-08-24T10:54:42Z</time>
      </trkpt>
      <trkpt lat="45.12876" lon="5.55885">
        <ele>1213.5</ele>
        <time>2009-08-24T10:54:51Z</time>
      </trkpt>
      <trkpt lat="45.12837" lon="5.55873">
        <ele>1212.8</ele>
        <time>2009-08-24T10:54:59Z</time>
      </trkpt>
      <trkpt lat="45.12821" lon="5.55863">
        <ele>1212</ele>
        <time>2009-08-24T10:55:02Z</time>
      </trkpt>
      <trkpt lat="45.128" lon="5.55861">
        <ele>1210.8</ele>
        <time>2009-08-24T10:55:06Z</time>
      </trkpt>
      <trkpt lat="45.12714" lon="5.55811">
        <ele>1207.6</ele>
        <time>2009-08-24T10:55:22Z</time>
      </trkpt>
      <trkpt lat="45.12672" lon="5.55772">
        <ele>1206.5</ele>
        <time>2009-08-24T10:55:29Z</time>
      </trkpt>
      <trkpt lat="45.12657" lon="5.55766">
        <ele>1206</ele>
        <time>2009-08-24T10:55:31Z</time>
      </trkpt>
      <trkpt lat="45.12649" lon="5.55768">
        <ele>1205.4</ele>
        <time>2009-08-24T10:55:32Z</time>
      </trkpt>
      <trkpt lat="45.1263" lon="5.55783">
        <ele>1205.9</ele>
        <time>2009-08-24T10:55:35Z</time>
      </trkpt>
      <trkpt lat="45.12589" lon="5.55831">
        <ele>1209</ele>
        <time>2009-08-24T10:55:45Z</time>
      </trkpt>
      <trkpt lat="45.12569" lon="5.55837">
        <ele>1211.4</ele>
        <time>2009-08-24T10:55:49Z</time>
      </trkpt>
      <trkpt lat="45.12543" lon="5.55836">
        <ele>1212</ele>
        <time>2009-08-24T10:55:54Z</time>
      </trkpt>
      <trkpt lat="45.12522" lon="5.5583">
        <ele>1212.5</ele>
        <time>2009-08-24T10:55:58Z</time>
      </trkpt>
      <trkpt lat="45.12495" lon="5.55813">
        <ele>1213.5</ele>
        <time>2009-08-24T10:56:03Z</time>
      </trkpt>
      <trkpt lat="45.12481" lon="5.55795">
        <ele>1215</ele>
        <time>2009-08-24T10:56:06Z</time>
      </trkpt>
      <trkpt lat="45.12469" lon="5.55763">
        <ele>1216</ele>
        <time>2009-08-24T10:56:11Z</time>
      </trkpt>
      <trkpt lat="45.12452" lon="5.55754">
        <ele>1216.4</ele>
        <time>2009-08-24T10:56:15Z</time>
      </trkpt>
      <trkpt lat="45.1244" lon="5.55743">
        <ele>1217.4</ele>
        <time>2009-08-24T10:56:18Z</time>
      </trkpt>
      <trkpt lat="45.12402" lon="5.55738">
        <ele>1216.5</ele>
        <time>2009-08-24T10:56:25Z</time>
      </trkpt>
      <trkpt lat="45.12376" lon="5.55748">
        <ele>1214.5</ele>
        <time>2009-08-24T10:56:29Z</time>
      </trkpt>
      <trkpt lat="45.12346" lon="5.55768">
        <ele>1212.6</ele>
        <time>2009-08-24T10:56:34Z</time>
      </trkpt>
      <trkpt lat="45.12327" lon="5.55775">
        <ele>1212.9</ele>
        <time>2009-08-24T10:56:38Z</time>
      </trkpt>
      <trkpt lat="45.12318" lon="5.55774">
        <ele>1213.4</ele>
        <time>2009-08-24T10:56:40Z</time>
      </trkpt>
      <trkpt lat="45.12252" lon="5.5573">
        <ele>1210.8</ele>
        <time>2009-08-24T10:56:59Z</time>
      </trkpt>
      <trkpt lat="45.12239" lon="5.55704">
        <ele>1209.8</ele>
        <time>2009-08-24T10:57:03Z</time>
      </trkpt>
      <trkpt lat="45.12237" lon="5.55688">
        <ele>1209.8</ele>
        <time>2009-08-24T10:57:05Z</time>
      </trkpt>
      <trkpt lat="45.12245" lon="5.55641">
        <ele>1206.8</ele>
        <time>2009-08-24T10:57:12Z</time>
      </trkpt>
      <trkpt lat="45.12256" lon="5.55604">
        <ele>1204.5</ele>
        <time>2009-08-24T10:57:18Z</time>
      </trkpt>
      <trkpt lat="45.12256" lon="5.55595">
        <ele>1204.5</ele>
        <time>2009-08-24T10:57:20Z</time>
      </trkpt>
      <trkpt lat="45.12206" lon="5.55612">
        <ele>1202.6</ele>
        <time>2009-08-24T10:57:37Z</time>
      </trkpt>
      <trkpt lat="45.12182" lon="5.55634">
        <ele>1201.8</ele>
        <time>2009-08-24T10:57:43Z</time>
      </trkpt>
      <trkpt lat="45.12145" lon="5.55692">
        <ele>1198</ele>
        <time>2009-08-24T10:57:57Z</time>
      </trkpt>
      <trkpt lat="45.12109" lon="5.55727">
        <ele>1195</ele>
        <time>2009-08-24T10:58:10Z</time>
      </trkpt>
      <trkpt lat="45.12095" lon="5.55764">
        <ele>1194.3</ele>
        <time>2009-08-24T10:58:17Z</time>
      </trkpt>
      <trkpt lat="45.1208" lon="5.55781">
        <ele>1196</ele>
        <time>2009-08-24T10:58:22Z</time>
      </trkpt>
      <trkpt lat="45.12063" lon="5.55791">
        <ele>1196.6</ele>
        <time>2009-08-24T10:58:27Z</time>
      </trkpt>
      <trkpt lat="45.12051" lon="5.55805">
        <ele>1197.5</ele>
        <time>2009-08-24T10:58:31Z</time>
      </trkpt>
      <trkpt lat="45.11984" lon="5.55718">
        <ele>1198.8</ele>
        <time>2009-08-24T10:59:13Z</time>
      </trkpt>
      <trkpt lat="45.1196" lon="5.55698">
        <ele>1200.1</ele>
        <time>2009-08-24T10:59:25Z</time>
      </trkpt>
      <trkpt lat="45.11954" lon="5.55681">
        <ele>1200.9</ele>
        <time>2009-08-24T10:59:31Z</time>
      </trkpt>
      <trkpt lat="45.11955" lon="5.55658">
        <ele>1205</ele>
        <time>2009-08-24T10:59:40Z</time>
      </trkpt>
      <trkpt lat="45.11917" lon="5.55572">
        <ele>1214.6</ele>
        <time>2009-08-24T11:00:13Z</time>
      </trkpt>
      <trkpt lat="45.11898" lon="5.55542">
        <ele>1222</ele>
        <time>2009-08-24T11:00:25Z</time>
      </trkpt>
      <trkpt lat="45.11859" lon="5.55431">
        <ele>1234.6</ele>
        <time>2009-08-24T11:01:15Z</time>
      </trkpt>
      <trkpt lat="45.11807" lon="5.55356">
        <ele>1234.8</ele>
        <time>2009-08-24T11:01:46Z</time>
      </trkpt>
      <trkpt lat="45.11798" lon="5.55331">
        <ele>1234</ele>
        <time>2009-08-24T11:01:52Z</time>
      </trkpt>
      <trkpt lat="45.11796" lon="5.55296">
        <ele>1233.4</ele>
        <time>2009-08-24T11:01:58Z</time>
      </trkpt>
      <trkpt lat="45.11788" lon="5.5525">
        <ele>1236.6</ele>
        <time>2009-08-24T11:02:05Z</time>
      </trkpt>
      <trkpt lat="45.11777" lon="5.55218">
        <ele>1238.3</ele>
        <time>2009-08-24T11:02:11Z</time>
      </trkpt>
      <trkpt lat="45.11767" lon="5.55223">
        <ele>1236.1</ele>
        <time>2009-08-24T11:02:17Z</time>
      </trkpt>
      <trkpt lat="45.11749" lon="5.55255">
        <ele>1235</ele>
        <time>2009-08-24T11:02:32Z</time>
      </trkpt>
      <trkpt lat="45.11733" lon="5.55265">
        <ele>1237</ele>
        <time>2009-08-24T11:02:42Z</time>
      </trkpt>
      <trkpt lat="45.11709" lon="5.55264">
        <ele>1236.5</ele>
        <time>2009-08-24T11:02:48Z</time>
      </trkpt>
      <trkpt lat="45.11674" lon="5.55255">
        <ele>1237.1</ele>
        <time>2009-08-24T11:02:55Z</time>
      </trkpt>
      <trkpt lat="45.11664" lon="5.55247">
        <ele>1237.8</ele>
        <time>2009-08-24T11:02:57Z</time>
      </trkpt>
      <trkpt lat="45.11641" lon="5.55208">
        <ele>1240</ele>
        <time>2009-08-24T11:03:08Z</time>
      </trkpt>
      <trkpt lat="45.1163" lon="5.5518">
        <ele>1247</ele>
        <time>2009-08-24T11:03:39Z</time>
      </trkpt>
      <trkpt lat="45.11628" lon="5.55164">
        <ele>1249.4</ele>
        <time>2009-08-24T11:04:06Z</time>
      </trkpt>
      <trkpt lat="45.11617" lon="5.55138">
        <ele>1251.6</ele>
        <time>2009-08-24T11:04:20Z</time>
      </trkpt>
      <trkpt lat="45.11612" lon="5.55076">
        <ele>1252.9</ele>
        <time>2009-08-24T11:04:45Z</time>
      </trkpt>
      <trkpt lat="45.11607" lon="5.55064">
        <ele>1255</ele>
        <time>2009-08-24T11:04:50Z</time>
      </trkpt>
      <trkpt lat="45.11604" lon="5.55034">
        <ele>1258.3</ele>
        <time>2009-08-24T11:05:01Z</time>
      </trkpt>
      <trkpt lat="45.11588" lon="5.54985">
        <ele>1267.5</ele>
        <time>2009-08-24T11:05:18Z</time>
      </trkpt>
      <trkpt lat="45.11587" lon="5.5497">
        <ele>1269.1</ele>
        <time>2009-08-24T11:05:23Z</time>
      </trkpt>
      <trkpt lat="45.11582" lon="5.54957">
        <ele>1271.5</ele>
        <time>2009-08-24T11:05:28Z</time>
      </trkpt>
      <trkpt lat="45.11582" lon="5.5493">
        <ele>1274.9</ele>
        <time>2009-08-24T11:05:38Z</time>
      </trkpt>
      <trkpt lat="45.11594" lon="5.54891">
        <ele>1274</ele>
        <time>2009-08-24T11:05:53Z</time>
      </trkpt>
      <trkpt lat="45.11584" lon="5.54876">
        <ele>1275.5</ele>
        <time>2009-08-24T11:06:43Z</time>
      </trkpt>
      <trkpt lat="45.11558" lon="5.54861">
        <ele>1277.5</ele>
        <time>2009-08-24T11:06:58Z</time>
      </trkpt>
      <trkpt lat="45.11537" lon="5.54857">
        <ele>1277.5</ele>
        <time>2009-08-24T11:07:07Z</time>
      </trkpt>
      <trkpt lat="45.11458" lon="5.54816">
        <ele>1278.8</ele>
        <time>2009-08-24T11:07:37Z</time>
      </trkpt>
      <trkpt lat="45.11371" lon="5.54796">
        <ele>1278.4</ele>
        <time>2009-08-24T11:08:02Z</time>
      </trkpt>
      <trkpt lat="45.11294" lon="5.54791">
        <ele>1278</ele>
        <time>2009-08-24T11:08:19Z</time>
      </trkpt>
      <trkpt lat="45.11202" lon="5.54802">
        <ele>1275</ele>
        <time>2009-08-24T11:08:32Z</time>
      </trkpt>
      <trkpt lat="45.11115" lon="5.54781">
        <ele>1272.3</ele>
        <time>2009-08-24T11:08:42Z</time>
      </trkpt>
      <trkpt lat="45.11089" lon="5.54771">
        <ele>1272</ele>
        <time>2009-08-24T11:08:45Z</time>
      </trkpt>
      <trkpt lat="45.11016" lon="5.54784">
        <ele>1267.6</ele>
        <time>2009-08-24T11:08:53Z</time>
      </trkpt>
      <trkpt lat="45.10951" lon="5.54768">
        <ele>1265.1</ele>
        <time>2009-08-24T11:08:59Z</time>
      </trkpt>
      <trkpt lat="45.10841" lon="5.5476">
        <ele>1262.8</ele>
        <time>2009-08-24T11:09:10Z</time>
      </trkpt>
      <trkpt lat="45.10778" lon="5.54735">
        <ele>1250.3</ele>
        <time>2009-08-24T11:09:18Z</time>
      </trkpt>
      <trkpt lat="45.10634" lon="5.54685">
        <ele>1230</ele>
        <time>2009-08-24T11:09:37Z</time>
      </trkpt>
      <trkpt lat="45.10628" lon="5.54679">
        <ele>1228.9</ele>
        <time>2009-08-24T11:09:38Z</time>
      </trkpt>
      <trkpt lat="45.10607" lon="5.54639">
        <ele>1227.5</ele>
        <time>2009-08-24T11:09:42Z</time>
      </trkpt>
      <trkpt lat="45.10598" lon="5.54609">
        <ele>1226.1</ele>
        <time>2009-08-24T11:09:46Z</time>
      </trkpt>
      <trkpt lat="45.10609" lon="5.54612">
        <ele>1222.1</ele>
        <time>2009-08-24T11:09:50Z</time>
      </trkpt>
      <trkpt lat="45.10692" lon="5.54596">
        <ele>1213.9</ele>
        <time>2009-08-24T11:10:08Z</time>
      </trkpt>
      <trkpt lat="45.1073" lon="5.54624">
        <ele>1207.6</ele>
        <time>2009-08-24T11:10:21Z</time>
      </trkpt>
      <trkpt lat="45.10771" lon="5.54628">
        <ele>1206</ele>
        <time>2009-08-24T11:10:27Z</time>
      </trkpt>
      <trkpt lat="45.10809" lon="5.54609">
        <ele>1204</ele>
        <time>2009-08-24T11:10:32Z</time>
      </trkpt>
      <trkpt lat="45.10913" lon="5.54515">
        <ele>1200.5</ele>
        <time>2009-08-24T11:10:44Z</time>
      </trkpt>
      <trkpt lat="45.1109" lon="5.54408">
        <ele>1191.9</ele>
        <time>2009-08-24T11:11:06Z</time>
      </trkpt>
      <trkpt lat="45.11102" lon="5.54394">
        <ele>1190</ele>
        <time>2009-08-24T11:11:09Z</time>
      </trkpt>
      <trkpt lat="45.1111" lon="5.54379">
        <ele>1187</ele>
        <time>2009-08-24T11:11:12Z</time>
      </trkpt>
      <trkpt lat="45.11112" lon="5.54369">
        <ele>1185.5</ele>
        <time>2009-08-24T11:11:14Z</time>
      </trkpt>
      <trkpt lat="45.11103" lon="5.54315">
        <ele>1181.3</ele>
        <time>2009-08-24T11:11:23Z</time>
      </trkpt>
      <trkpt lat="45.11115" lon="5.54267">
        <ele>1172</ele>
        <time>2009-08-24T11:11:33Z</time>
      </trkpt>
      <trkpt lat="45.11151" lon="5.54224">
        <ele>1165.3</ele>
        <time>2009-08-24T11:11:53Z</time>
      </trkpt>
      <trkpt lat="45.1115" lon="5.5419">
        <ele>1163.9</ele>
        <time>2009-08-24T11:11:58Z</time>
      </trkpt>
      <trkpt lat="45.11161" lon="5.54127">
        <ele>1159.5</ele>
        <time>2009-08-24T11:12:05Z</time>
      </trkpt>
      <trkpt lat="45.11178" lon="5.54075">
        <ele>1152.3</ele>
        <time>2009-08-24T11:12:17Z</time>
      </trkpt>
      <trkpt lat="45.11196" lon="5.54048">
        <ele>1148.3</ele>
        <time>2009-08-24T11:12:26Z</time>
      </trkpt>
      <trkpt lat="45.11222" lon="5.53977">
        <ele>1134</ele>
        <time>2009-08-24T11:12:43Z</time>
      </trkpt>
      <trkpt lat="45.11231" lon="5.53961">
        <ele>1129.5</ele>
        <time>2009-08-24T11:12:47Z</time>
      </trkpt>
      <trkpt lat="45.11232" lon="5.53942">
        <ele>1123.8</ele>
        <time>2009-08-24T11:12:51Z</time>
      </trkpt>
      <trkpt lat="45.11269" lon="5.53871">
        <ele>1105</ele>
        <time>2009-08-24T11:13:12Z</time>
      </trkpt>
      <trkpt lat="45.11289" lon="5.53856">
        <ele>1099</ele>
        <time>2009-08-24T11:13:18Z</time>
      </trkpt>
      <trkpt lat="45.11302" lon="5.53826">
        <ele>1094</ele>
        <time>2009-08-24T11:13:23Z</time>
      </trkpt>
      <trkpt lat="45.11319" lon="5.53768">
        <ele>1082.8</ele>
        <time>2009-08-24T11:13:37Z</time>
      </trkpt>
      <trkpt lat="45.11317" lon="5.53751">
        <ele>1079.4</ele>
        <time>2009-08-24T11:13:40Z</time>
      </trkpt>
      <trkpt lat="45.11309" lon="5.53731">
        <ele>1074.9</ele>
        <time>2009-08-24T11:13:45Z</time>
      </trkpt>
      <trkpt lat="45.11305" lon="5.53707">
        <ele>1071</ele>
        <time>2009-08-24T11:13:49Z</time>
      </trkpt>
      <trkpt lat="45.11314" lon="5.5367">
        <ele>1062.9</ele>
        <time>2009-08-24T11:13:56Z</time>
      </trkpt>
      <trkpt lat="45.11319" lon="5.53664">
        <ele>1060</ele>
        <time>2009-08-24T11:13:59Z</time>
      </trkpt>
      <trkpt lat="45.1135" lon="5.53653">
        <ele>1051.3</ele>
        <time>2009-08-24T11:14:07Z</time>
      </trkpt>
      <trkpt lat="45.11363" lon="5.53643">
        <ele>1047.5</ele>
        <time>2009-08-24T11:14:12Z</time>
      </trkpt>
      <trkpt lat="45.1144" lon="5.5363">
        <ele>1030.9</ele>
        <time>2009-08-24T11:14:27Z</time>
      </trkpt>
      <trkpt lat="45.11505" lon="5.53669">
        <ele>1018.2</ele>
        <time>2009-08-24T11:14:38Z</time>
      </trkpt>
      <trkpt lat="45.1156" lon="5.53662">
        <ele>1006.5</ele>
        <time>2009-08-24T11:14:46Z</time>
      </trkpt>
      <trkpt lat="45.11588" lon="5.53662">
        <ele>1002</ele>
        <time>2009-08-24T11:14:49Z</time>
      </trkpt>
      <trkpt lat="45.11617" lon="5.53669">
        <ele>999.2</ele>
        <time>2009-08-24T11:14:52Z</time>
      </trkpt>
      <trkpt lat="45.11679" lon="5.5371">
        <ele>985.2</ele>
        <time>2009-08-24T11:15:01Z</time>
      </trkpt>
      <trkpt lat="45.11721" lon="5.53707">
        <ele>980</ele>
        <time>2009-08-24T11:15:07Z</time>
      </trkpt>
      <trkpt lat="45.11751" lon="5.53714">
        <ele>978.7</ele>
        <time>2009-08-24T11:15:11Z</time>
      </trkpt>
      <trkpt lat="45.11874" lon="5.53762">
        <ele>973.2</ele>
        <time>2009-08-24T11:15:27Z</time>
      </trkpt>
      <trkpt lat="45.11913" lon="5.53711">
        <ele>973.2</ele>
        <time>2009-08-24T11:15:37Z</time>
      </trkpt>
      <trkpt lat="45.11921" lon="5.53714">
        <ele>973.5</ele>
        <time>2009-08-24T11:15:40Z</time>
      </trkpt>
      <trkpt lat="45.11931" lon="5.53729">
        <ele>973.7</ele>
        <time>2009-08-24T11:15:47Z</time>
      </trkpt>
      <trkpt lat="45.11953" lon="5.53746">
        <ele>975.7</ele>
        <time>2009-08-24T11:15:58Z</time>
      </trkpt>
      <trkpt lat="45.11969" lon="5.53765">
        <ele>977.5</ele>
        <time>2009-08-24T11:16:06Z</time>
      </trkpt>
      <trkpt lat="45.11988" lon="5.53781">
        <ele>978.7</ele>
        <time>2009-08-24T11:16:14Z</time>
      </trkpt>
      <trkpt lat="45.12039" lon="5.53806">
        <ele>981.7</ele>
        <time>2009-08-24T11:16:32Z</time>
      </trkpt>
      <trkpt lat="45.1207" lon="5.53812">
        <ele>982.2</ele>
        <time>2009-08-24T11:16:42Z</time>
      </trkpt>
      <trkpt lat="45.12098" lon="5.53811">
        <ele>981.5</ele>
        <time>2009-08-24T11:16:49Z</time>
      </trkpt>
      <trkpt lat="45.1225" lon="5.53831">
        <ele>982.5</ele>
        <time>2009-08-24T11:17:22Z</time>
      </trkpt>
      <trkpt lat="45.12297" lon="5.53865">
        <ele>986.5</ele>
        <time>2009-08-24T11:17:37Z</time>
      </trkpt>
      <trkpt lat="45.12321" lon="5.53871">
        <ele>989.5</ele>
        <time>2009-08-24T11:17:46Z</time>
      </trkpt>
      <trkpt lat="45.12411" lon="5.53841">
        <ele>993.7</ele>
        <time>2009-08-24T11:18:18Z</time>
      </trkpt>
      <trkpt lat="45.1246" lon="5.53832">
        <ele>995.2</ele>
        <time>2009-08-24T11:18:31Z</time>
      </trkpt>
      <trkpt lat="45.12542" lon="5.53833">
        <ele>994.2</ele>
        <time>2009-08-24T11:18:50Z</time>
      </trkpt>
      <trkpt lat="45.12576" lon="5.53826">
        <ele>993.4</ele>
        <time>2009-08-24T11:18:57Z</time>
      </trkpt>
      <trkpt lat="45.12625" lon="5.53795">
        <ele>991.5</ele>
        <time>2009-08-24T11:19:07Z</time>
      </trkpt>
      <trkpt lat="45.12746" lon="5.53737">
        <ele>993.9</ele>
        <time>2009-08-24T11:19:39Z</time>
      </trkpt>
      <trkpt lat="45.12774" lon="5.5374">
        <ele>996.2</ele>
        <time>2009-08-24T11:19:53Z</time>
      </trkpt>
      <trkpt lat="45.12802" lon="5.53728">
        <ele>1000.5</ele>
        <time>2009-08-24T11:20:07Z</time>
      </trkpt>
      <trkpt lat="45.1284" lon="5.53735">
        <ele>1002.5</ele>
        <time>2009-08-24T11:20:23Z</time>
      </trkpt>
      <trkpt lat="45.12863" lon="5.53746">
        <ele>1003.5</ele>
        <time>2009-08-24T11:20:32Z</time>
      </trkpt>
      <trkpt lat="45.12961" lon="5.5381">
        <ele>1005.7</ele>
        <time>2009-08-24T11:21:17Z</time>
      </trkpt>
      <trkpt lat="45.1306" lon="5.53869">
        <ele>1013.5</ele>
        <time>2009-08-24T11:22:08Z</time>
      </trkpt>
      <trkpt lat="45.13137" lon="5.53866">
        <ele>1020</ele>
        <time>2009-08-24T11:22:44Z</time>
      </trkpt>
      <trkpt lat="45.13144" lon="5.53861">
        <ele>1020.2</ele>
        <time>2009-08-24T11:22:46Z</time>
      </trkpt>
      <trkpt lat="45.13151" lon="5.53847">
        <ele>1020.5</ele>
        <time>2009-08-24T11:22:49Z</time>
      </trkpt>
      <trkpt lat="45.13165" lon="5.53802">
        <ele>1019.7</ele>
        <time>2009-08-24T11:22:57Z</time>
      </trkpt>
      <trkpt lat="45.13167" lon="5.53779">
        <ele>1019.2</ele>
        <time>2009-08-24T11:23:00Z</time>
      </trkpt>
      <trkpt lat="45.13163" lon="5.53755">
        <ele>1019</ele>
        <time>2009-08-24T11:23:03Z</time>
      </trkpt>
      <trkpt lat="45.1313" lon="5.5364">
        <ele>1015.5</ele>
        <time>2009-08-24T11:23:15Z</time>
      </trkpt>
      <trkpt lat="45.13126" lon="5.53615">
        <ele>1014.5</ele>
        <time>2009-08-24T11:23:17Z</time>
      </trkpt>
      <trkpt lat="45.13124" lon="5.53512">
        <ele>1008.7</ele>
        <time>2009-08-24T11:23:24Z</time>
      </trkpt>
      <trkpt lat="45.13047" lon="5.53163">
        <ele>989.7</ele>
        <time>2009-08-24T11:23:46Z</time>
      </trkpt>
      <trkpt lat="45.1305" lon="5.53122">
        <ele>988.9</ele>
        <time>2009-08-24T11:23:49Z</time>
      </trkpt>
      <trkpt lat="45.13135" lon="5.5289">
        <ele>985.7</ele>
        <time>2009-08-24T11:24:20Z</time>
      </trkpt>
      <trkpt lat="45.13134" lon="5.5287">
        <ele>985.2</ele>
        <time>2009-08-24T11:24:24Z</time>
      </trkpt>
      <trkpt lat="45.13138" lon="5.52856">
        <ele>985.2</ele>
        <time>2009-08-24T11:24:27Z</time>
      </trkpt>
      <trkpt lat="45.13146" lon="5.5285">
        <ele>985</ele>
        <time>2009-08-24T11:24:30Z</time>
      </trkpt>
      <trkpt lat="45.13718" lon="5.52631">
        <ele>991</ele>
        <time>2009-08-24T11:26:40Z</time>
      </trkpt>
      <trkpt lat="45.13779" lon="5.52626">
        <ele>992.2</ele>
        <time>2009-08-24T11:26:53Z</time>
      </trkpt>
      <trkpt lat="45.13942" lon="5.52629">
        <ele>995.9</ele>
        <time>2009-08-24T11:27:32Z</time>
      </trkpt>
      <trkpt lat="45.1402" lon="5.52636">
        <ele>997.2</ele>
        <time>2009-08-24T11:27:51Z</time>
      </trkpt>
      <trkpt lat="45.14114" lon="5.52637">
        <ele>997.5</ele>
        <time>2009-08-24T11:28:08Z</time>
      </trkpt>
      <trkpt lat="45.143" lon="5.52631">
        <ele>1003.2</ele>
        <time>2009-08-24T11:28:51Z</time>
      </trkpt>
      <trkpt lat="45.14305" lon="5.52626">
        <ele>1004</ele>
        <time>2009-08-24T11:28:56Z</time>
      </trkpt>
      <trkpt lat="45.14314" lon="5.52629">
        <ele>1003.7</ele>
        <time>2009-08-24T11:29:01Z</time>
      </trkpt>
      <trkpt lat="45.14561" lon="5.52623">
        <ele>1005.5</ele>
        <time>2009-08-24T11:29:53Z</time>
      </trkpt>
      <trkpt lat="45.15007" lon="5.52554">
        <ele>1009</ele>
        <time>2009-08-24T11:31:10Z</time>
      </trkpt>
      <trkpt lat="45.15025" lon="5.52538">
        <ele>1008.2</ele>
        <time>2009-08-24T11:31:14Z</time>
      </trkpt>
      <trkpt lat="45.15089" lon="5.52335">
        <ele>1006.5</ele>
        <time>2009-08-24T11:31:45Z</time>
      </trkpt>
      <trkpt lat="45.15104" lon="5.52315">
        <ele>1006</ele>
        <time>2009-08-24T11:31:49Z</time>
      </trkpt>
      <trkpt lat="45.15114" lon="5.52309">
        <ele>1005.9</ele>
        <time>2009-08-24T11:31:51Z</time>
      </trkpt>
      <trkpt lat="45.15129" lon="5.52307">
        <ele>1005.4</ele>
        <time>2009-08-24T11:31:54Z</time>
      </trkpt>
      <trkpt lat="45.15234" lon="5.52334">
        <ele>1005</ele>
        <time>2009-08-24T11:32:13Z</time>
      </trkpt>
      <trkpt lat="45.15356" lon="5.52324">
        <ele>1006.7</ele>
        <time>2009-08-24T11:32:35Z</time>
      </trkpt>
      <trkpt lat="45.15464" lon="5.52339">
        <ele>1008.4</ele>
        <time>2009-08-24T11:32:56Z</time>
      </trkpt>
      <trkpt lat="45.15506" lon="5.52339">
        <ele>1010.5</ele>
        <time>2009-08-24T11:33:05Z</time>
      </trkpt>
      <trkpt lat="45.15563" lon="5.52331">
        <ele>1012.5</ele>
        <time>2009-08-24T11:33:17Z</time>
      </trkpt>
      <trkpt lat="45.15707" lon="5.5227">
        <ele>1016.2</ele>
        <time>2009-08-24T11:33:47Z</time>
      </trkpt>
      <trkpt lat="45.15757" lon="5.52278">
        <ele>1017.5</ele>
        <time>2009-08-24T11:33:56Z</time>
      </trkpt>
      <trkpt lat="45.15928" lon="5.5233">
        <ele>1015.2</ele>
        <time>2009-08-24T11:34:30Z</time>
      </trkpt>
      <trkpt lat="45.16005" lon="5.52318">
        <ele>1014.2</ele>
        <time>2009-08-24T11:34:44Z</time>
      </trkpt>
      <trkpt lat="45.16039" lon="5.5233">
        <ele>1014.2</ele>
        <time>2009-08-24T11:34:50Z</time>
      </trkpt>
      <trkpt lat="45.16104" lon="5.52373">
        <ele>1015</ele>
        <time>2009-08-24T11:35:02Z</time>
      </trkpt>
      <trkpt lat="45.16202" lon="5.5242">
        <ele>1017</ele>
        <time>2009-08-24T11:35:21Z</time>
      </trkpt>
      <trkpt lat="45.16527" lon="5.52529">
        <ele>1017</ele>
        <time>2009-08-24T11:36:17Z</time>
      </trkpt>
      <trkpt lat="45.16543" lon="5.5254">
        <ele>1016.7</ele>
        <time>2009-08-24T11:36:20Z</time>
      </trkpt>
      <trkpt lat="45.16617" lon="5.52623">
        <ele>1016.4</ele>
        <time>2009-08-24T11:36:36Z</time>
      </trkpt>
      <trkpt lat="45.16644" lon="5.52636">
        <ele>1016</ele>
        <time>2009-08-24T11:36:41Z</time>
      </trkpt>
      <trkpt lat="45.16781" lon="5.52675">
        <ele>1017</ele>
        <time>2009-08-24T11:37:04Z</time>
      </trkpt>
      <trkpt lat="45.16849" lon="5.5267">
        <ele>1018.2</ele>
        <time>2009-08-24T11:37:16Z</time>
      </trkpt>
      <trkpt lat="45.16878" lon="5.52677">
        <ele>1018.7</ele>
        <time>2009-08-24T11:37:21Z</time>
      </trkpt>
      <trkpt lat="45.17035" lon="5.52768">
        <ele>1019.5</ele>
        <time>2009-08-24T11:37:50Z</time>
      </trkpt>
      <trkpt lat="45.17142" lon="5.52876">
        <ele>1019.2</ele>
        <time>2009-08-24T11:38:13Z</time>
      </trkpt>
      <trkpt lat="45.17177" lon="5.52917">
        <ele>1019.2</ele>
        <time>2009-08-24T11:38:21Z</time>
      </trkpt>
      <trkpt lat="45.17222" lon="5.52985">
        <ele>1019.7</ele>
        <time>2009-08-24T11:38:32Z</time>
      </trkpt>
      <trkpt lat="45.17277" lon="5.53055">
        <ele>1019</ele>
        <time>2009-08-24T11:38:44Z</time>
      </trkpt>
      <trkpt lat="45.17357" lon="5.53264">
        <ele>1022.4</ele>
        <time>2009-08-24T11:39:13Z</time>
      </trkpt>
      <trkpt lat="45.17371" lon="5.53317">
        <ele>1024.3</ele>
        <time>2009-08-24T11:39:21Z</time>
      </trkpt>
      <trkpt lat="45.17375" lon="5.53349">
        <ele>1024.5</ele>
        <time>2009-08-24T11:39:26Z</time>
      </trkpt>
      <trkpt lat="45.17375" lon="5.5338">
        <ele>1025.3</ele>
        <time>2009-08-24T11:39:31Z</time>
      </trkpt>
      <trkpt lat="45.17364" lon="5.53463">
        <ele>1027.3</ele>
        <time>2009-08-24T11:39:45Z</time>
      </trkpt>
      <trkpt lat="45.17368" lon="5.53492">
        <ele>1028.3</ele>
        <time>2009-08-24T11:39:50Z</time>
      </trkpt>
      <trkpt lat="45.17389" lon="5.53545">
        <ele>1031</ele>
        <time>2009-08-24T11:40:00Z</time>
      </trkpt>
      <trkpt lat="45.17428" lon="5.53615">
        <ele>1033.6</ele>
        <time>2009-08-24T11:40:15Z</time>
      </trkpt>
      <trkpt lat="45.17436" lon="5.53644">
        <ele>1034.3</ele>
        <time>2009-08-24T11:40:20Z</time>
      </trkpt>
      <trkpt lat="45.17442" lon="5.53685">
        <ele>1035.1</ele>
        <time>2009-08-24T11:40:27Z</time>
      </trkpt>
      <trkpt lat="45.17414" lon="5.53853">
        <ele>1034.8</ele>
        <time>2009-08-24T11:40:52Z</time>
      </trkpt>
      <trkpt lat="45.17371" lon="5.54039">
        <ele>1037.5</ele>
        <time>2009-08-24T11:41:29Z</time>
      </trkpt>
      <trkpt lat="45.17373" lon="5.54053">
        <ele>1037.6</ele>
        <time>2009-08-24T11:41:32Z</time>
      </trkpt>
      <trkpt lat="45.1744" lon="5.5412">
        <ele>1039.9</ele>
        <time>2009-08-24T11:41:51Z</time>
      </trkpt>
      <trkpt lat="45.17453" lon="5.54126">
        <ele>1040.9</ele>
        <time>2009-08-24T11:41:54Z</time>
      </trkpt>
      <trkpt lat="45.17479" lon="5.54155">
        <ele>1043.9</ele>
        <time>2009-08-24T11:42:02Z</time>
      </trkpt>
      <trkpt lat="45.17489" lon="5.54182">
        <ele>1044.5</ele>
        <time>2009-08-24T11:42:08Z</time>
      </trkpt>
      <trkpt lat="45.175" lon="5.54194">
        <ele>1045.1</ele>
        <time>2009-08-24T11:42:12Z</time>
      </trkpt>
      <trkpt lat="45.17532" lon="5.54199">
        <ele>1048</ele>
        <time>2009-08-24T11:42:20Z</time>
      </trkpt>
      <trkpt lat="45.17562" lon="5.54212">
        <ele>1049.5</ele>
        <time>2009-08-24T11:42:29Z</time>
      </trkpt>
      <trkpt lat="45.17578" lon="5.54211">
        <ele>1050.5</ele>
        <time>2009-08-24T11:42:34Z</time>
      </trkpt>
      <trkpt lat="45.1759" lon="5.54216">
        <ele>1051.5</ele>
        <time>2009-08-24T11:42:38Z</time>
      </trkpt>
      <trkpt lat="45.1761" lon="5.54235">
        <ele>1050.9</ele>
        <time>2009-08-24T11:42:45Z</time>
      </trkpt>
      <trkpt lat="45.17612" lon="5.54247">
        <ele>1050.6</ele>
        <time>2009-08-24T11:43:02Z</time>
      </trkpt>
    </trkseg>
  </trk>
</gpx>